<?xml version="1.0" encoding="UTF-8" standalone="no" ?>
<gpx xmlns="http://www.topografix.com/GPX/1/1" xmlns:xsi="http://www.w3.org/2001/XMLSchema-instance" xsi:schemaLocation="http://www.topografix.com/GPX/1/1 http://www.topografix.com/GPX/1/1/gpx.xsd" version="1.1" creator="VisuGPX - https://www.visugpx.com">
  <metadata>
    <name>Boucle de Pagax</name>
    <desc><![CDATA[Départ de Decazeville
Agnac
Château de Pagax
les Anglès
la Combe]]></desc>
  </metadata>
  <trk>
    <name><![CDATA[track]]></name>
    <trkseg>
      <trkpt lat="44.5676" lon="2.25896">
        <ele>253</ele>
        <time>2014-05-25T14:04:11Z</time>
      </trkpt>
      <trkpt lat="44.56766" lon="2.25898">
        <ele>252</ele>
        <time>2014-05-25T14:04:25Z</time>
      </trkpt>
      <trkpt lat="44.56767" lon="2.2589">
        <ele>251</ele>
        <time>2014-05-25T14:04:26Z</time>
      </trkpt>
      <trkpt lat="44.56763" lon="2.25881">
        <ele>252</ele>
        <time>2014-05-25T14:05:14Z</time>
      </trkpt>
      <trkpt lat="44.56761" lon="2.25875">
        <ele>252</ele>
        <time>2014-05-25T14:05:16Z</time>
      </trkpt>
      <trkpt lat="44.56759" lon="2.25848">
        <ele>251</ele>
        <time>2014-05-25T14:05:33Z</time>
      </trkpt>
      <trkpt lat="44.56762" lon="2.25846">
        <ele>250</ele>
        <time>2014-05-25T14:05:35Z</time>
      </trkpt>
      <trkpt lat="44.5677" lon="2.25851">
        <ele>248</ele>
        <time>2014-05-25T14:05:39Z</time>
      </trkpt>
      <trkpt lat="44.56773" lon="2.25858">
        <ele>248</ele>
        <time>2014-05-25T14:05:43Z</time>
      </trkpt>
      <trkpt lat="44.56776" lon="2.2586">
        <ele>248</ele>
        <time>2014-05-25T14:05:45Z</time>
      </trkpt>
      <trkpt lat="44.56787" lon="2.25877">
        <ele>245</ele>
        <time>2014-05-25T14:05:58Z</time>
      </trkpt>
      <trkpt lat="44.56787" lon="2.25882">
        <ele>246</ele>
        <time>2014-05-25T14:06:02Z</time>
      </trkpt>
      <trkpt lat="44.56785" lon="2.25885">
        <ele>246</ele>
        <time>2014-05-25T14:06:04Z</time>
      </trkpt>
      <trkpt lat="44.56787" lon="2.2589">
        <ele>246</ele>
        <time>2014-05-25T14:06:09Z</time>
      </trkpt>
      <trkpt lat="44.56789" lon="2.25892">
        <ele>246</ele>
        <time>2014-05-25T14:06:12Z</time>
      </trkpt>
      <trkpt lat="44.56787" lon="2.25897">
        <ele>246</ele>
        <time>2014-05-25T14:06:16Z</time>
      </trkpt>
      <trkpt lat="44.56798" lon="2.25921">
        <ele>245</ele>
        <time>2014-05-25T14:06:34Z</time>
      </trkpt>
      <trkpt lat="44.56801" lon="2.2592">
        <ele>245</ele>
        <time>2014-05-25T14:06:36Z</time>
      </trkpt>
      <trkpt lat="44.56804" lon="2.25932">
        <ele>245</ele>
        <time>2014-05-25T14:06:48Z</time>
      </trkpt>
      <trkpt lat="44.56803" lon="2.25934">
        <ele>245</ele>
        <time>2014-05-25T14:06:49Z</time>
      </trkpt>
      <trkpt lat="44.56804" lon="2.25944">
        <ele>245</ele>
        <time>2014-05-25T14:06:53Z</time>
      </trkpt>
      <trkpt lat="44.56806" lon="2.25947">
        <ele>245</ele>
        <time>2014-05-25T14:06:55Z</time>
      </trkpt>
      <trkpt lat="44.56806" lon="2.2595">
        <ele>245</ele>
        <time>2014-05-25T14:06:58Z</time>
      </trkpt>
      <trkpt lat="44.56808" lon="2.25952">
        <ele>245</ele>
        <time>2014-05-25T14:07:00Z</time>
      </trkpt>
      <trkpt lat="44.56809" lon="2.25958">
        <ele>245</ele>
        <time>2014-05-25T14:07:04Z</time>
      </trkpt>
      <trkpt lat="44.56811" lon="2.25959">
        <ele>245</ele>
        <time>2014-05-25T14:07:05Z</time>
      </trkpt>
      <trkpt lat="44.56813" lon="2.25968">
        <ele>244</ele>
        <time>2014-05-25T14:07:16Z</time>
      </trkpt>
      <trkpt lat="44.56813" lon="2.25973">
        <ele>244</ele>
        <time>2014-05-25T14:07:19Z</time>
      </trkpt>
      <trkpt lat="44.56823" lon="2.25997">
        <ele>242</ele>
        <time>2014-05-25T14:07:38Z</time>
      </trkpt>
      <trkpt lat="44.56821" lon="2.26">
        <ele>243</ele>
        <time>2014-05-25T14:07:39Z</time>
      </trkpt>
      <trkpt lat="44.5682" lon="2.26002">
        <ele>243</ele>
        <time>2014-05-25T14:07:40Z</time>
      </trkpt>
      <trkpt lat="44.56817" lon="2.2601">
        <ele>243</ele>
        <time>2014-05-25T14:07:49Z</time>
      </trkpt>
      <trkpt lat="44.56815" lon="2.26013">
        <ele>244</ele>
        <time>2014-05-25T14:07:51Z</time>
      </trkpt>
      <trkpt lat="44.56814" lon="2.26016">
        <ele>244</ele>
        <time>2014-05-25T14:07:53Z</time>
      </trkpt>
      <trkpt lat="44.56809" lon="2.26028">
        <ele>245</ele>
        <time>2014-05-25T14:08:02Z</time>
      </trkpt>
      <trkpt lat="44.56807" lon="2.26049">
        <ele>245</ele>
        <time>2014-05-25T14:08:17Z</time>
      </trkpt>
      <trkpt lat="44.5681" lon="2.26071">
        <ele>246</ele>
        <time>2014-05-25T14:08:29Z</time>
      </trkpt>
      <trkpt lat="44.56811" lon="2.26074">
        <ele>246</ele>
        <time>2014-05-25T14:08:31Z</time>
      </trkpt>
      <trkpt lat="44.56813" lon="2.26077">
        <ele>246</ele>
        <time>2014-05-25T14:08:33Z</time>
      </trkpt>
      <trkpt lat="44.56812" lon="2.2608">
        <ele>246</ele>
        <time>2014-05-25T14:08:35Z</time>
      </trkpt>
      <trkpt lat="44.56813" lon="2.26086">
        <ele>247</ele>
        <time>2014-05-25T14:08:37Z</time>
      </trkpt>
      <trkpt lat="44.56818" lon="2.26088">
        <ele>246</ele>
        <time>2014-05-25T14:08:42Z</time>
      </trkpt>
      <trkpt lat="44.56824" lon="2.26091">
        <ele>245</ele>
        <time>2014-05-25T14:08:47Z</time>
      </trkpt>
      <trkpt lat="44.56833" lon="2.26098">
        <ele>243</ele>
        <time>2014-05-25T14:09:00Z</time>
      </trkpt>
      <trkpt lat="44.56838" lon="2.26104">
        <ele>243</ele>
        <time>2014-05-25T14:09:08Z</time>
      </trkpt>
      <trkpt lat="44.56843" lon="2.26104">
        <ele>242</ele>
        <time>2014-05-25T14:09:11Z</time>
      </trkpt>
      <trkpt lat="44.56848" lon="2.26109">
        <ele>241</ele>
        <time>2014-05-25T14:09:19Z</time>
      </trkpt>
      <trkpt lat="44.56844" lon="2.26114">
        <ele>242</ele>
        <time>2014-05-25T14:09:24Z</time>
      </trkpt>
      <trkpt lat="44.56836" lon="2.26123">
        <ele>244</ele>
        <time>2014-05-25T14:09:34Z</time>
      </trkpt>
      <trkpt lat="44.56834" lon="2.26127">
        <ele>245</ele>
        <time>2014-05-25T14:09:37Z</time>
      </trkpt>
      <trkpt lat="44.56831" lon="2.26128">
        <ele>246</ele>
        <time>2014-05-25T14:09:40Z</time>
      </trkpt>
      <trkpt lat="44.56829" lon="2.26131">
        <ele>246</ele>
        <time>2014-05-25T14:09:42Z</time>
      </trkpt>
      <trkpt lat="44.56825" lon="2.26143">
        <ele>248</ele>
        <time>2014-05-25T14:09:51Z</time>
      </trkpt>
      <trkpt lat="44.56819" lon="2.26159">
        <ele>251</ele>
        <time>2014-05-25T14:10:06Z</time>
      </trkpt>
      <trkpt lat="44.56815" lon="2.26165">
        <ele>252</ele>
        <time>2014-05-25T14:10:12Z</time>
      </trkpt>
      <trkpt lat="44.56811" lon="2.2617">
        <ele>254</ele>
        <time>2014-05-25T14:10:14Z</time>
      </trkpt>
      <trkpt lat="44.56806" lon="2.26184">
        <ele>256</ele>
        <time>2014-05-25T14:10:16Z</time>
      </trkpt>
      <trkpt lat="44.56801" lon="2.2621">
        <ele>260</ele>
        <time>2014-05-25T14:10:52Z</time>
      </trkpt>
      <trkpt lat="44.56798" lon="2.26226">
        <ele>261</ele>
        <time>2014-05-25T14:10:53Z</time>
      </trkpt>
      <trkpt lat="44.56793" lon="2.26239">
        <ele>263</ele>
        <time>2014-05-25T14:10:55Z</time>
      </trkpt>
      <trkpt lat="44.5679" lon="2.26261">
        <ele>265</ele>
        <time>2014-05-25T14:10:57Z</time>
      </trkpt>
      <trkpt lat="44.56786" lon="2.26277">
        <ele>267</ele>
        <time>2014-05-25T14:11:28Z</time>
      </trkpt>
      <trkpt lat="44.56784" lon="2.26288">
        <ele>267</ele>
        <time>2014-05-25T14:11:40Z</time>
      </trkpt>
      <trkpt lat="44.56783" lon="2.263">
        <ele>267</ele>
        <time>2014-05-25T14:11:52Z</time>
      </trkpt>
      <trkpt lat="44.56783" lon="2.26323">
        <ele>266</ele>
        <time>2014-05-25T14:11:57Z</time>
      </trkpt>
      <trkpt lat="44.56784" lon="2.26341">
        <ele>264</ele>
        <time>2014-05-25T14:12:02Z</time>
      </trkpt>
      <trkpt lat="44.56788" lon="2.26361">
        <ele>262</ele>
        <time>2014-05-25T14:12:09Z</time>
      </trkpt>
      <trkpt lat="44.56795" lon="2.26372">
        <ele>260</ele>
        <time>2014-05-25T14:12:13Z</time>
      </trkpt>
      <trkpt lat="44.56801" lon="2.26383">
        <ele>259</ele>
        <time>2014-05-25T14:12:27Z</time>
      </trkpt>
      <trkpt lat="44.56807" lon="2.2639">
        <ele>257</ele>
        <time>2014-05-25T14:12:36Z</time>
      </trkpt>
      <trkpt lat="44.56811" lon="2.26397">
        <ele>257</ele>
        <time>2014-05-25T14:12:40Z</time>
      </trkpt>
      <trkpt lat="44.56815" lon="2.26403">
        <ele>256</ele>
        <time>2014-05-25T14:12:41Z</time>
      </trkpt>
      <trkpt lat="44.56821" lon="2.26411">
        <ele>255</ele>
        <time>2014-05-25T14:12:46Z</time>
      </trkpt>
      <trkpt lat="44.56827" lon="2.2642">
        <ele>254</ele>
        <time>2014-05-25T14:12:49Z</time>
      </trkpt>
      <trkpt lat="44.5683" lon="2.26428">
        <ele>253</ele>
        <time>2014-05-25T14:12:50Z</time>
      </trkpt>
      <trkpt lat="44.56834" lon="2.26432">
        <ele>253</ele>
        <time>2014-05-25T14:12:55Z</time>
      </trkpt>
      <trkpt lat="44.56835" lon="2.26439">
        <ele>252</ele>
        <time>2014-05-25T14:13:00Z</time>
      </trkpt>
      <trkpt lat="44.56839" lon="2.26444">
        <ele>252</ele>
        <time>2014-05-25T14:13:40Z</time>
      </trkpt>
      <trkpt lat="44.56843" lon="2.2645">
        <ele>252</ele>
        <time>2014-05-25T14:13:43Z</time>
      </trkpt>
      <trkpt lat="44.56859" lon="2.26481">
        <ele>251</ele>
        <time>2014-05-25T14:14:13Z</time>
      </trkpt>
      <trkpt lat="44.5687" lon="2.26497">
        <ele>250</ele>
        <time>2014-05-25T14:14:23Z</time>
      </trkpt>
      <trkpt lat="44.56872" lon="2.26506">
        <ele>250</ele>
        <time>2014-05-25T14:14:27Z</time>
      </trkpt>
      <trkpt lat="44.56872" lon="2.26509">
        <ele>251</ele>
        <time>2014-05-25T14:14:29Z</time>
      </trkpt>
      <trkpt lat="44.56876" lon="2.26523">
        <ele>251</ele>
        <time>2014-05-25T14:14:39Z</time>
      </trkpt>
      <trkpt lat="44.56878" lon="2.26524">
        <ele>251</ele>
        <time>2014-05-25T14:14:43Z</time>
      </trkpt>
      <trkpt lat="44.56878" lon="2.26528">
        <ele>251</ele>
        <time>2014-05-25T14:14:46Z</time>
      </trkpt>
      <trkpt lat="44.56879" lon="2.26538">
        <ele>252</ele>
        <time>2014-05-25T14:14:52Z</time>
      </trkpt>
      <trkpt lat="44.56876" lon="2.26549">
        <ele>253</ele>
        <time>2014-05-25T14:14:57Z</time>
      </trkpt>
      <trkpt lat="44.56875" lon="2.26565">
        <ele>255</ele>
        <time>2014-05-25T14:15:14Z</time>
      </trkpt>
      <trkpt lat="44.56873" lon="2.26583">
        <ele>257</ele>
        <time>2014-05-25T14:15:25Z</time>
      </trkpt>
      <trkpt lat="44.5687" lon="2.26592">
        <ele>259</ele>
        <time>2014-05-25T14:15:32Z</time>
      </trkpt>
      <trkpt lat="44.5687" lon="2.26599">
        <ele>260</ele>
        <time>2014-05-25T14:15:35Z</time>
      </trkpt>
      <trkpt lat="44.56869" lon="2.26606">
        <ele>261</ele>
        <time>2014-05-25T14:15:44Z</time>
      </trkpt>
      <trkpt lat="44.56868" lon="2.26612">
        <ele>262</ele>
        <time>2014-05-25T14:15:47Z</time>
      </trkpt>
      <trkpt lat="44.56867" lon="2.26619">
        <ele>263</ele>
        <time>2014-05-25T14:15:48Z</time>
      </trkpt>
      <trkpt lat="44.56867" lon="2.26629">
        <ele>264</ele>
        <time>2014-05-25T14:15:54Z</time>
      </trkpt>
      <trkpt lat="44.56869" lon="2.26642">
        <ele>265</ele>
        <time>2014-05-25T14:15:56Z</time>
      </trkpt>
      <trkpt lat="44.56872" lon="2.26659">
        <ele>266</ele>
        <time>2014-05-25T14:16:10Z</time>
      </trkpt>
      <trkpt lat="44.56883" lon="2.26691">
        <ele>267</ele>
        <time>2014-05-25T14:16:29Z</time>
      </trkpt>
      <trkpt lat="44.56891" lon="2.26703">
        <ele>267</ele>
        <time>2014-05-25T14:16:31Z</time>
      </trkpt>
      <trkpt lat="44.56898" lon="2.26713">
        <ele>266</ele>
        <time>2014-05-25T14:16:38Z</time>
      </trkpt>
      <trkpt lat="44.56902" lon="2.26718">
        <ele>265</ele>
        <time>2014-05-25T14:16:44Z</time>
      </trkpt>
      <trkpt lat="44.56908" lon="2.26725">
        <ele>264</ele>
        <time>2014-05-25T14:16:51Z</time>
      </trkpt>
      <trkpt lat="44.56911" lon="2.26731">
        <ele>264</ele>
        <time>2014-05-25T14:16:55Z</time>
      </trkpt>
      <trkpt lat="44.56909" lon="2.26734">
        <ele>265</ele>
        <time>2014-05-25T14:16:56Z</time>
      </trkpt>
      <trkpt lat="44.56915" lon="2.26739">
        <ele>264</ele>
        <time>2014-05-25T14:17:00Z</time>
      </trkpt>
      <trkpt lat="44.56914" lon="2.26744">
        <ele>264</ele>
        <time>2014-05-25T14:17:01Z</time>
      </trkpt>
      <trkpt lat="44.56916" lon="2.26746">
        <ele>264</ele>
        <time>2014-05-25T14:17:02Z</time>
      </trkpt>
      <trkpt lat="44.56916" lon="2.26749">
        <ele>264</ele>
        <time>2014-05-25T14:17:04Z</time>
      </trkpt>
      <trkpt lat="44.56932" lon="2.26772">
        <ele>261</ele>
        <time>2014-05-25T14:17:23Z</time>
      </trkpt>
      <trkpt lat="44.56936" lon="2.26772">
        <ele>260</ele>
        <time>2014-05-25T14:17:25Z</time>
      </trkpt>
      <trkpt lat="44.56942" lon="2.26778">
        <ele>259</ele>
        <time>2014-05-25T14:17:29Z</time>
      </trkpt>
      <trkpt lat="44.56944" lon="2.26785">
        <ele>259</ele>
        <time>2014-05-25T14:17:35Z</time>
      </trkpt>
      <trkpt lat="44.56944" lon="2.26795">
        <ele>259</ele>
        <time>2014-05-25T14:17:44Z</time>
      </trkpt>
      <trkpt lat="44.56944" lon="2.26799">
        <ele>259</ele>
        <time>2014-05-25T14:17:48Z</time>
      </trkpt>
      <trkpt lat="44.56944" lon="2.26802">
        <ele>259</ele>
        <time>2014-05-25T14:17:52Z</time>
      </trkpt>
      <trkpt lat="44.56945" lon="2.2681">
        <ele>259</ele>
        <time>2014-05-25T14:17:54Z</time>
      </trkpt>
      <trkpt lat="44.56945" lon="2.26816">
        <ele>260</ele>
        <time>2014-05-25T14:17:56Z</time>
      </trkpt>
      <trkpt lat="44.56941" lon="2.26824">
        <ele>261</ele>
        <time>2014-05-25T14:18:07Z</time>
      </trkpt>
      <trkpt lat="44.56934" lon="2.26828">
        <ele>262</ele>
        <time>2014-05-25T14:18:11Z</time>
      </trkpt>
      <trkpt lat="44.56928" lon="2.26832">
        <ele>263</ele>
        <time>2014-05-25T14:18:13Z</time>
      </trkpt>
      <trkpt lat="44.56926" lon="2.26836">
        <ele>264</ele>
        <time>2014-05-25T14:18:17Z</time>
      </trkpt>
      <trkpt lat="44.56924" lon="2.26836">
        <ele>264</ele>
        <time>2014-05-25T14:18:20Z</time>
      </trkpt>
      <trkpt lat="44.5692" lon="2.26841">
        <ele>265</ele>
        <time>2014-05-25T14:18:25Z</time>
      </trkpt>
      <trkpt lat="44.56916" lon="2.2684">
        <ele>266</ele>
        <time>2014-05-25T14:18:29Z</time>
      </trkpt>
      <trkpt lat="44.5691" lon="2.26842">
        <ele>267</ele>
        <time>2014-05-25T14:18:30Z</time>
      </trkpt>
      <trkpt lat="44.56905" lon="2.26846">
        <ele>268</ele>
        <time>2014-05-25T14:18:32Z</time>
      </trkpt>
      <trkpt lat="44.56899" lon="2.26847">
        <ele>269</ele>
        <time>2014-05-25T14:18:39Z</time>
      </trkpt>
      <trkpt lat="44.56891" lon="2.26847">
        <ele>271</ele>
        <time>2014-05-25T14:18:42Z</time>
      </trkpt>
      <trkpt lat="44.56874" lon="2.26843">
        <ele>274</ele>
        <time>2014-05-25T14:19:06Z</time>
      </trkpt>
      <trkpt lat="44.56865" lon="2.26845">
        <ele>276</ele>
      </trkpt>
      <trkpt lat="44.56858" lon="2.26846">
        <ele>277</ele>
        <time>2014-05-25T14:19:10Z</time>
      </trkpt>
      <trkpt lat="44.56848" lon="2.26839">
        <ele>279</ele>
        <time>2014-05-25T14:19:28Z</time>
      </trkpt>
      <trkpt lat="44.56838" lon="2.26841">
        <ele>281</ele>
        <time>2014-05-25T14:19:30Z</time>
      </trkpt>
      <trkpt lat="44.56833" lon="2.26844">
        <ele>281</ele>
        <time>2014-05-25T14:19:33Z</time>
      </trkpt>
      <trkpt lat="44.56831" lon="2.26844">
        <ele>282</ele>
        <time>2014-05-25T14:19:34Z</time>
      </trkpt>
      <trkpt lat="44.56826" lon="2.26846">
        <ele>283</ele>
        <time>2014-05-25T14:19:40Z</time>
      </trkpt>
      <trkpt lat="44.5682" lon="2.26844">
        <ele>284</ele>
        <time>2014-05-25T14:19:42Z</time>
      </trkpt>
      <trkpt lat="44.56817" lon="2.26844">
        <ele>284</ele>
        <time>2014-05-25T14:19:45Z</time>
      </trkpt>
      <trkpt lat="44.56814" lon="2.26847">
        <ele>285</ele>
        <time>2014-05-25T14:19:47Z</time>
      </trkpt>
      <trkpt lat="44.56808" lon="2.26852">
        <ele>286</ele>
        <time>2014-05-25T14:19:49Z</time>
      </trkpt>
      <trkpt lat="44.56803" lon="2.26854">
        <ele>287</ele>
        <time>2014-05-25T14:19:51Z</time>
      </trkpt>
      <trkpt lat="44.56798" lon="2.26859">
        <ele>287</ele>
        <time>2014-05-25T14:19:54Z</time>
      </trkpt>
      <trkpt lat="44.56792" lon="2.26864">
        <ele>288</ele>
        <time>2014-05-25T14:19:57Z</time>
      </trkpt>
      <trkpt lat="44.56789" lon="2.26866">
        <ele>289</ele>
        <time>2014-05-25T14:20:01Z</time>
      </trkpt>
      <trkpt lat="44.56785" lon="2.26871">
        <ele>289</ele>
        <time>2014-05-25T14:20:02Z</time>
      </trkpt>
      <trkpt lat="44.56781" lon="2.26873">
        <ele>290</ele>
        <time>2014-05-25T14:20:15Z</time>
      </trkpt>
      <trkpt lat="44.56776" lon="2.26876">
        <ele>291</ele>
        <time>2014-05-25T14:20:18Z</time>
      </trkpt>
      <trkpt lat="44.56771" lon="2.26879">
        <ele>291</ele>
        <time>2014-05-25T14:20:22Z</time>
      </trkpt>
      <trkpt lat="44.56766" lon="2.26884">
        <ele>292</ele>
        <time>2014-05-25T14:20:24Z</time>
      </trkpt>
      <trkpt lat="44.56762" lon="2.26889">
        <ele>292</ele>
        <time>2014-05-25T14:20:28Z</time>
      </trkpt>
      <trkpt lat="44.56759" lon="2.26893">
        <ele>292</ele>
        <time>2014-05-25T14:20:34Z</time>
      </trkpt>
      <trkpt lat="44.56756" lon="2.26899">
        <ele>292</ele>
        <time>2014-05-25T14:20:37Z</time>
      </trkpt>
      <trkpt lat="44.56753" lon="2.26902">
        <ele>292</ele>
        <time>2014-05-25T14:20:41Z</time>
      </trkpt>
      <trkpt lat="44.56749" lon="2.26905">
        <ele>293</ele>
        <time>2014-05-25T14:20:43Z</time>
      </trkpt>
      <trkpt lat="44.56744" lon="2.2691">
        <ele>293</ele>
        <time>2014-05-25T14:20:48Z</time>
      </trkpt>
      <trkpt lat="44.56744" lon="2.26913">
        <ele>293</ele>
        <time>2014-05-25T14:20:54Z</time>
      </trkpt>
      <trkpt lat="44.5674" lon="2.26919">
        <ele>293</ele>
        <time>2014-05-25T14:21:18Z</time>
      </trkpt>
      <trkpt lat="44.56738" lon="2.26923">
        <ele>293</ele>
        <time>2014-05-25T14:21:20Z</time>
      </trkpt>
      <trkpt lat="44.56736" lon="2.26928">
        <ele>293</ele>
        <time>2014-05-25T14:21:27Z</time>
      </trkpt>
      <trkpt lat="44.56733" lon="2.26931">
        <ele>293</ele>
        <time>2014-05-25T14:21:29Z</time>
      </trkpt>
      <trkpt lat="44.56733" lon="2.26941">
        <ele>292</ele>
        <time>2014-05-25T14:21:33Z</time>
      </trkpt>
      <trkpt lat="44.56736" lon="2.26948">
        <ele>291</ele>
        <time>2014-05-25T14:21:37Z</time>
      </trkpt>
      <trkpt lat="44.56744" lon="2.2695">
        <ele>290</ele>
        <time>2014-05-25T14:21:38Z</time>
      </trkpt>
      <trkpt lat="44.56754" lon="2.26946">
        <ele>288</ele>
        <time>2014-05-25T14:22:09Z</time>
      </trkpt>
      <trkpt lat="44.56769" lon="2.26943">
        <ele>286</ele>
        <time>2014-05-25T14:22:32Z</time>
      </trkpt>
      <trkpt lat="44.56779" lon="2.26943">
        <ele>285</ele>
        <time>2014-05-25T14:22:41Z</time>
      </trkpt>
      <trkpt lat="44.56784" lon="2.26944">
        <ele>284</ele>
        <time>2014-05-25T14:22:44Z</time>
      </trkpt>
      <trkpt lat="44.56794" lon="2.26946">
        <ele>282</ele>
        <time>2014-05-25T14:22:51Z</time>
      </trkpt>
      <trkpt lat="44.56801" lon="2.26947">
        <ele>281</ele>
        <time>2014-05-25T14:22:53Z</time>
      </trkpt>
      <trkpt lat="44.56809" lon="2.26948">
        <ele>280</ele>
        <time>2014-05-25T14:23:01Z</time>
      </trkpt>
      <trkpt lat="44.56815" lon="2.26953">
        <ele>279</ele>
        <time>2014-05-25T14:23:10Z</time>
      </trkpt>
      <trkpt lat="44.56813" lon="2.26964">
        <ele>279</ele>
        <time>2014-05-25T14:23:14Z</time>
      </trkpt>
      <trkpt lat="44.56813" lon="2.26971">
        <ele>279</ele>
        <time>2014-05-25T14:23:19Z</time>
      </trkpt>
      <trkpt lat="44.56812" lon="2.26982">
        <ele>280</ele>
        <time>2014-05-25T14:23:50Z</time>
      </trkpt>
      <trkpt lat="44.56811" lon="2.26985">
        <ele>280</ele>
        <time>2014-05-25T14:23:52Z</time>
      </trkpt>
      <trkpt lat="44.56809" lon="2.26988">
        <ele>281</ele>
        <time>2014-05-25T14:23:54Z</time>
      </trkpt>
      <trkpt lat="44.56807" lon="2.2699">
        <ele>281</ele>
        <time>2014-05-25T14:23:57Z</time>
      </trkpt>
      <trkpt lat="44.56806" lon="2.26995">
        <ele>281</ele>
        <time>2014-05-25T14:23:59Z</time>
      </trkpt>
      <trkpt lat="44.568" lon="2.27002">
        <ele>282</ele>
        <time>2014-05-25T14:24:03Z</time>
      </trkpt>
      <trkpt lat="44.56798" lon="2.27019">
        <ele>283</ele>
        <time>2014-05-25T14:24:05Z</time>
      </trkpt>
      <trkpt lat="44.56796" lon="2.27027">
        <ele>284</ele>
        <time>2014-05-25T14:24:06Z</time>
      </trkpt>
      <trkpt lat="44.56794" lon="2.27035">
        <ele>284</ele>
        <time>2014-05-25T14:24:07Z</time>
      </trkpt>
      <trkpt lat="44.56793" lon="2.27045">
        <ele>285</ele>
        <time>2014-05-25T14:24:08Z</time>
      </trkpt>
      <trkpt lat="44.56786" lon="2.27076">
        <ele>290</ele>
        <time>2014-05-25T14:24:12Z</time>
      </trkpt>
      <trkpt lat="44.56784" lon="2.27077">
        <ele>290</ele>
        <time>2014-05-25T14:24:13Z</time>
      </trkpt>
      <trkpt lat="44.56778" lon="2.27096">
        <ele>293</ele>
        <time>2014-05-25T14:24:34Z</time>
      </trkpt>
      <trkpt lat="44.56774" lon="2.27105">
        <ele>295</ele>
        <time>2014-05-25T14:24:39Z</time>
      </trkpt>
      <trkpt lat="44.5677" lon="2.27113">
        <ele>296</ele>
        <time>2014-05-25T14:24:47Z</time>
      </trkpt>
      <trkpt lat="44.56769" lon="2.27117">
        <ele>296</ele>
        <time>2014-05-25T14:24:53Z</time>
      </trkpt>
      <trkpt lat="44.56767" lon="2.2712">
        <ele>297</ele>
        <time>2014-05-25T14:24:56Z</time>
      </trkpt>
      <trkpt lat="44.56764" lon="2.27126">
        <ele>298</ele>
        <time>2014-05-25T14:25:00Z</time>
      </trkpt>
      <trkpt lat="44.56763" lon="2.27131">
        <ele>298</ele>
        <time>2014-05-25T14:25:09Z</time>
      </trkpt>
      <trkpt lat="44.5676" lon="2.27136">
        <ele>298</ele>
        <time>2014-05-25T14:25:16Z</time>
      </trkpt>
      <trkpt lat="44.56757" lon="2.27143">
        <ele>298</ele>
        <time>2014-05-25T14:25:30Z</time>
      </trkpt>
      <trkpt lat="44.56754" lon="2.27145">
        <ele>299</ele>
        <time>2014-05-25T14:25:32Z</time>
      </trkpt>
      <trkpt lat="44.56749" lon="2.27149">
        <ele>299</ele>
        <time>2014-05-25T14:25:36Z</time>
      </trkpt>
      <trkpt lat="44.56747" lon="2.27154">
        <ele>299</ele>
        <time>2014-05-25T14:25:42Z</time>
      </trkpt>
      <trkpt lat="44.56746" lon="2.27157">
        <ele>300</ele>
        <time>2014-05-25T14:25:44Z</time>
      </trkpt>
      <trkpt lat="44.56745" lon="2.2716">
        <ele>300</ele>
        <time>2014-05-25T14:25:46Z</time>
      </trkpt>
      <trkpt lat="44.56742" lon="2.27167">
        <ele>300</ele>
        <time>2014-05-25T14:25:50Z</time>
      </trkpt>
      <trkpt lat="44.56739" lon="2.2718">
        <ele>300</ele>
        <time>2014-05-25T14:26:03Z</time>
      </trkpt>
      <trkpt lat="44.56735" lon="2.27189">
        <ele>300</ele>
        <time>2014-05-25T14:26:10Z</time>
      </trkpt>
      <trkpt lat="44.56733" lon="2.2719">
        <ele>301</ele>
        <time>2014-05-25T14:26:14Z</time>
      </trkpt>
      <trkpt lat="44.56731" lon="2.27192">
        <ele>301</ele>
        <time>2014-05-25T14:26:18Z</time>
      </trkpt>
      <trkpt lat="44.56729" lon="2.27194">
        <ele>301</ele>
        <time>2014-05-25T14:26:21Z</time>
      </trkpt>
      <trkpt lat="44.56726" lon="2.27199">
        <ele>301</ele>
        <time>2014-05-25T14:26:25Z</time>
      </trkpt>
      <trkpt lat="44.56719" lon="2.27211">
        <ele>302</ele>
        <time>2014-05-25T14:26:34Z</time>
      </trkpt>
      <trkpt lat="44.56713" lon="2.27218">
        <ele>302</ele>
        <time>2014-05-25T14:26:49Z</time>
      </trkpt>
      <trkpt lat="44.5671" lon="2.27223">
        <ele>303</ele>
        <time>2014-05-25T14:26:54Z</time>
      </trkpt>
      <trkpt lat="44.56708" lon="2.27226">
        <ele>303</ele>
        <time>2014-05-25T14:26:56Z</time>
      </trkpt>
      <trkpt lat="44.56702" lon="2.27241">
        <ele>304</ele>
        <time>2014-05-25T14:27:07Z</time>
      </trkpt>
      <trkpt lat="44.56695" lon="2.27259">
        <ele>305</ele>
        <time>2014-05-25T14:27:25Z</time>
      </trkpt>
      <trkpt lat="44.56695" lon="2.27263">
        <ele>305</ele>
        <time>2014-05-25T14:27:28Z</time>
      </trkpt>
      <trkpt lat="44.56694" lon="2.27268">
        <ele>305</ele>
        <time>2014-05-25T14:27:31Z</time>
      </trkpt>
      <trkpt lat="44.56693" lon="2.2727">
        <ele>306</ele>
        <time>2014-05-25T14:27:33Z</time>
      </trkpt>
      <trkpt lat="44.5668" lon="2.27288">
        <ele>308</ele>
        <time>2014-05-25T14:27:48Z</time>
      </trkpt>
      <trkpt lat="44.56675" lon="2.27299">
        <ele>308</ele>
        <time>2014-05-25T14:28:02Z</time>
      </trkpt>
      <trkpt lat="44.56673" lon="2.27307">
        <ele>309</ele>
        <time>2014-05-25T14:28:07Z</time>
      </trkpt>
      <trkpt lat="44.56672" lon="2.27313">
        <ele>308</ele>
        <time>2014-05-25T14:28:09Z</time>
      </trkpt>
      <trkpt lat="44.56666" lon="2.27335">
        <ele>309</ele>
        <time>2014-05-25T14:28:18Z</time>
      </trkpt>
      <trkpt lat="44.56664" lon="2.27337">
        <ele>309</ele>
        <time>2014-05-25T14:28:20Z</time>
      </trkpt>
      <trkpt lat="44.56662" lon="2.27339">
        <ele>309</ele>
        <time>2014-05-25T14:28:23Z</time>
      </trkpt>
      <trkpt lat="44.56648" lon="2.27373">
        <ele>310</ele>
        <time>2014-05-25T14:28:53Z</time>
      </trkpt>
      <trkpt lat="44.56624" lon="2.27425">
        <ele>313</ele>
        <time>2014-05-25T14:29:23Z</time>
      </trkpt>
      <trkpt lat="44.56601" lon="2.27476">
        <ele>315</ele>
        <time>2014-05-25T14:29:54Z</time>
      </trkpt>
      <trkpt lat="44.56572" lon="2.27518">
        <ele>319</ele>
        <time>2014-05-25T14:30:25Z</time>
      </trkpt>
      <trkpt lat="44.56556" lon="2.27557">
        <ele>321</ele>
        <time>2014-05-25T14:30:57Z</time>
      </trkpt>
      <trkpt lat="44.5655" lon="2.27587">
        <ele>320</ele>
        <time>2014-05-25T14:31:19Z</time>
      </trkpt>
      <trkpt lat="44.56547" lon="2.27591">
        <ele>321</ele>
        <time>2014-05-25T14:31:25Z</time>
      </trkpt>
      <trkpt lat="44.5654" lon="2.27601">
        <ele>322</ele>
        <time>2014-05-25T14:31:36Z</time>
      </trkpt>
      <trkpt lat="44.56539" lon="2.27614">
        <ele>322</ele>
        <time>2014-05-25T14:31:55Z</time>
      </trkpt>
      <trkpt lat="44.56544" lon="2.27622">
        <ele>320</ele>
        <time>2014-05-25T14:32:05Z</time>
      </trkpt>
      <trkpt lat="44.56544" lon="2.27626">
        <ele>320</ele>
        <time>2014-05-25T14:32:07Z</time>
      </trkpt>
      <trkpt lat="44.56541" lon="2.27632">
        <ele>320</ele>
        <time>2014-05-25T14:32:11Z</time>
      </trkpt>
      <trkpt lat="44.56541" lon="2.27636">
        <ele>320</ele>
        <time>2014-05-25T14:32:13Z</time>
      </trkpt>
      <trkpt lat="44.56537" lon="2.27643">
        <ele>319</ele>
        <time>2014-05-25T14:32:19Z</time>
      </trkpt>
      <trkpt lat="44.5653" lon="2.27649">
        <ele>320</ele>
        <time>2014-05-25T14:32:22Z</time>
      </trkpt>
      <trkpt lat="44.56519" lon="2.277">
        <ele>316</ele>
        <time>2014-05-25T14:32:53Z</time>
      </trkpt>
      <trkpt lat="44.56513" lon="2.27718">
        <ele>317</ele>
        <time>2014-05-25T14:33:19Z</time>
      </trkpt>
      <trkpt lat="44.5651" lon="2.27736">
        <ele>317</ele>
        <time>2014-05-25T14:33:26Z</time>
      </trkpt>
      <trkpt lat="44.56502" lon="2.27756">
        <ele>319</ele>
        <time>2014-05-25T14:34:01Z</time>
      </trkpt>
      <trkpt lat="44.565" lon="2.27769">
        <ele>319</ele>
      </trkpt>
      <trkpt lat="44.56495" lon="2.2778">
        <ele>321</ele>
        <time>2014-05-25T14:34:11Z</time>
      </trkpt>
      <trkpt lat="44.56493" lon="2.27792">
        <ele>321</ele>
        <time>2014-05-25T14:34:13Z</time>
      </trkpt>
      <trkpt lat="44.56492" lon="2.27803">
        <ele>321</ele>
        <time>2014-05-25T14:34:44Z</time>
      </trkpt>
      <trkpt lat="44.5649" lon="2.27816">
        <ele>321</ele>
        <time>2014-05-25T14:34:58Z</time>
      </trkpt>
      <trkpt lat="44.56486" lon="2.27831">
        <ele>321</ele>
        <time>2014-05-25T14:35:00Z</time>
      </trkpt>
      <trkpt lat="44.56485" lon="2.27849">
        <ele>321</ele>
        <time>2014-05-25T14:35:04Z</time>
      </trkpt>
      <trkpt lat="44.56484" lon="2.27856">
        <ele>321</ele>
        <time>2014-05-25T14:35:24Z</time>
      </trkpt>
      <trkpt lat="44.56483" lon="2.2787">
        <ele>320</ele>
        <time>2014-05-25T14:35:34Z</time>
      </trkpt>
      <trkpt lat="44.56487" lon="2.27917">
        <ele>320</ele>
        <time>2014-05-25T14:35:37Z</time>
      </trkpt>
      <trkpt lat="44.56489" lon="2.27927">
        <ele>320</ele>
        <time>2014-05-25T14:35:46Z</time>
      </trkpt>
      <trkpt lat="44.56493" lon="2.27934">
        <ele>319</ele>
        <time>2014-05-25T14:35:49Z</time>
      </trkpt>
      <trkpt lat="44.56499" lon="2.27938">
        <ele>318</ele>
        <time>2014-05-25T14:35:52Z</time>
      </trkpt>
      <trkpt lat="44.56508" lon="2.27935">
        <ele>315</ele>
        <time>2014-05-25T14:35:55Z</time>
      </trkpt>
      <trkpt lat="44.56511" lon="2.27944">
        <ele>315</ele>
        <time>2014-05-25T14:36:11Z</time>
      </trkpt>
      <trkpt lat="44.56514" lon="2.27953">
        <ele>314</ele>
        <time>2014-05-25T14:36:19Z</time>
      </trkpt>
      <trkpt lat="44.56522" lon="2.27959">
        <ele>313</ele>
        <time>2014-05-25T14:36:22Z</time>
      </trkpt>
      <trkpt lat="44.56524" lon="2.27946">
        <ele>312</ele>
        <time>2014-05-25T14:36:40Z</time>
      </trkpt>
      <trkpt lat="44.56522" lon="2.27939">
        <ele>312</ele>
        <time>2014-05-25T14:37:02Z</time>
      </trkpt>
      <trkpt lat="44.56523" lon="2.27926">
        <ele>312</ele>
        <time>2014-05-25T14:37:04Z</time>
      </trkpt>
      <trkpt lat="44.56524" lon="2.27912">
        <ele>311</ele>
        <time>2014-05-25T14:37:06Z</time>
      </trkpt>
      <trkpt lat="44.56528" lon="2.27902">
        <ele>310</ele>
        <time>2014-05-25T14:37:09Z</time>
      </trkpt>
      <trkpt lat="44.56532" lon="2.27892">
        <ele>309</ele>
        <time>2014-05-25T14:37:11Z</time>
      </trkpt>
      <trkpt lat="44.56534" lon="2.27885">
        <ele>308</ele>
      </trkpt>
      <trkpt lat="44.56537" lon="2.27876">
        <ele>307</ele>
        <time>2014-05-25T14:37:21Z</time>
      </trkpt>
      <trkpt lat="44.56541" lon="2.27868">
        <ele>306</ele>
        <time>2014-05-25T14:37:27Z</time>
      </trkpt>
      <trkpt lat="44.56545" lon="2.27857">
        <ele>307</ele>
        <time>2014-05-25T14:37:51Z</time>
      </trkpt>
      <trkpt lat="44.56552" lon="2.27837">
        <ele>307</ele>
        <time>2014-05-25T14:37:53Z</time>
      </trkpt>
      <trkpt lat="44.56564" lon="2.27812">
        <ele>306</ele>
        <time>2014-05-25T14:37:55Z</time>
      </trkpt>
      <trkpt lat="44.56568" lon="2.27804">
        <ele>306</ele>
        <time>2014-05-25T14:38:07Z</time>
      </trkpt>
      <trkpt lat="44.56575" lon="2.27792">
        <ele>304</ele>
        <time>2014-05-25T14:38:17Z</time>
      </trkpt>
      <trkpt lat="44.56578" lon="2.27776">
        <ele>304</ele>
        <time>2014-05-25T14:38:25Z</time>
      </trkpt>
      <trkpt lat="44.56578" lon="2.27745">
        <ele>302</ele>
        <time>2014-05-25T14:38:27Z</time>
      </trkpt>
      <trkpt lat="44.56585" lon="2.27731">
        <ele>301</ele>
        <time>2014-05-25T14:38:57Z</time>
      </trkpt>
      <trkpt lat="44.56589" lon="2.27721">
        <ele>299</ele>
        <time>2014-05-25T14:39:03Z</time>
      </trkpt>
      <trkpt lat="44.56596" lon="2.27708">
        <ele>297</ele>
        <time>2014-05-25T14:39:11Z</time>
      </trkpt>
      <trkpt lat="44.566" lon="2.27693">
        <ele>297</ele>
        <time>2014-05-25T14:39:15Z</time>
      </trkpt>
      <trkpt lat="44.56611" lon="2.27687">
        <ele>294</ele>
        <time>2014-05-25T14:39:16Z</time>
      </trkpt>
      <trkpt lat="44.56617" lon="2.27706">
        <ele>292</ele>
        <time>2014-05-25T14:39:17Z</time>
      </trkpt>
      <trkpt lat="44.56617" lon="2.2771">
        <ele>292</ele>
        <time>2014-05-25T14:39:18Z</time>
      </trkpt>
      <trkpt lat="44.56618" lon="2.2772">
        <ele>293</ele>
        <time>2014-05-25T14:39:21Z</time>
      </trkpt>
      <trkpt lat="44.56623" lon="2.27725">
        <ele>292</ele>
        <time>2014-05-25T14:39:26Z</time>
      </trkpt>
      <trkpt lat="44.56625" lon="2.27724">
        <ele>292</ele>
        <time>2014-05-25T14:39:28Z</time>
      </trkpt>
      <trkpt lat="44.56647" lon="2.2774">
        <ele>297</ele>
        <time>2014-05-25T14:39:49Z</time>
      </trkpt>
      <trkpt lat="44.56651" lon="2.27738">
        <ele>297</ele>
        <time>2014-05-25T14:39:56Z</time>
      </trkpt>
      <trkpt lat="44.56665" lon="2.27744">
        <ele>300</ele>
        <time>2014-05-25T14:40:09Z</time>
      </trkpt>
      <trkpt lat="44.56679" lon="2.2774">
        <ele>302</ele>
        <time>2014-05-25T14:40:20Z</time>
      </trkpt>
      <trkpt lat="44.5668" lon="2.27739">
        <ele>302</ele>
        <time>2014-05-25T14:40:22Z</time>
      </trkpt>
      <trkpt lat="44.56683" lon="2.2774">
        <ele>302</ele>
        <time>2014-05-25T14:40:26Z</time>
      </trkpt>
      <trkpt lat="44.56684" lon="2.27738">
        <ele>302</ele>
        <time>2014-05-25T14:40:28Z</time>
      </trkpt>
      <trkpt lat="44.5669" lon="2.27735">
        <ele>303</ele>
        <time>2014-05-25T14:40:34Z</time>
      </trkpt>
      <trkpt lat="44.56692" lon="2.27736">
        <ele>303</ele>
        <time>2014-05-25T14:40:37Z</time>
      </trkpt>
      <trkpt lat="44.56693" lon="2.27736">
        <ele>303</ele>
        <time>2014-05-25T14:40:39Z</time>
      </trkpt>
      <trkpt lat="44.56696" lon="2.27738">
        <ele>304</ele>
        <time>2014-05-25T14:40:41Z</time>
      </trkpt>
      <trkpt lat="44.56724" lon="2.27726">
        <ele>307</ele>
        <time>2014-05-25T14:41:11Z</time>
      </trkpt>
      <trkpt lat="44.56728" lon="2.27724">
        <ele>308</ele>
        <time>2014-05-25T14:41:24Z</time>
      </trkpt>
      <trkpt lat="44.56731" lon="2.27723">
        <ele>308</ele>
        <time>2014-05-25T14:41:25Z</time>
      </trkpt>
      <trkpt lat="44.56734" lon="2.27721">
        <ele>309</ele>
        <time>2014-05-25T14:41:27Z</time>
      </trkpt>
      <trkpt lat="44.56736" lon="2.2772">
        <ele>309</ele>
        <time>2014-05-25T14:41:30Z</time>
      </trkpt>
      <trkpt lat="44.56739" lon="2.27718">
        <ele>309</ele>
        <time>2014-05-25T14:41:31Z</time>
      </trkpt>
      <trkpt lat="44.56744" lon="2.27736">
        <ele>314</ele>
        <time>2014-05-25T14:41:32Z</time>
      </trkpt>
      <trkpt lat="44.56744" lon="2.27741">
        <ele>315</ele>
        <time>2014-05-25T14:41:34Z</time>
      </trkpt>
      <trkpt lat="44.56744" lon="2.27743">
        <ele>316</ele>
        <time>2014-05-25T14:41:36Z</time>
      </trkpt>
      <trkpt lat="44.56742" lon="2.27743">
        <ele>315</ele>
        <time>2014-05-25T14:41:40Z</time>
      </trkpt>
      <trkpt lat="44.56742" lon="2.27742">
        <ele>315</ele>
        <time>2014-05-25T14:41:41Z</time>
      </trkpt>
      <trkpt lat="44.56741" lon="2.27735">
        <ele>313</ele>
        <time>2014-05-25T14:41:43Z</time>
      </trkpt>
      <trkpt lat="44.56747" lon="2.27743">
        <ele>316</ele>
        <time>2014-05-25T14:41:45Z</time>
      </trkpt>
      <trkpt lat="44.56748" lon="2.27737">
        <ele>315</ele>
        <time>2014-05-25T14:41:50Z</time>
      </trkpt>
      <trkpt lat="44.56746" lon="2.27729">
        <ele>313</ele>
        <time>2014-05-25T14:41:54Z</time>
      </trkpt>
      <trkpt lat="44.5675" lon="2.27721">
        <ele>312</ele>
        <time>2014-05-25T14:42:08Z</time>
      </trkpt>
      <trkpt lat="44.56752" lon="2.27716">
        <ele>312</ele>
        <time>2014-05-25T14:42:16Z</time>
      </trkpt>
      <trkpt lat="44.56754" lon="2.27718">
        <ele>312</ele>
        <time>2014-05-25T14:42:19Z</time>
      </trkpt>
      <trkpt lat="44.56758" lon="2.27717">
        <ele>313</ele>
        <time>2014-05-25T14:42:24Z</time>
      </trkpt>
      <trkpt lat="44.56762" lon="2.27705">
        <ele>312</ele>
        <time>2014-05-25T14:42:49Z</time>
      </trkpt>
      <trkpt lat="44.56774" lon="2.27703">
        <ele>314</ele>
        <time>2014-05-25T14:43:02Z</time>
      </trkpt>
      <trkpt lat="44.56783" lon="2.27696">
        <ele>314</ele>
        <time>2014-05-25T14:43:12Z</time>
      </trkpt>
      <trkpt lat="44.5681" lon="2.2768">
        <ele>317</ele>
        <time>2014-05-25T14:43:42Z</time>
      </trkpt>
      <trkpt lat="44.56813" lon="2.27679">
        <ele>317</ele>
        <time>2014-05-25T14:43:45Z</time>
      </trkpt>
      <trkpt lat="44.5682" lon="2.2768">
        <ele>319</ele>
        <time>2014-05-25T14:43:52Z</time>
      </trkpt>
      <trkpt lat="44.56821" lon="2.27679">
        <ele>319</ele>
        <time>2014-05-25T14:43:55Z</time>
      </trkpt>
      <trkpt lat="44.56825" lon="2.27679">
        <ele>320</ele>
        <time>2014-05-25T14:43:59Z</time>
      </trkpt>
      <trkpt lat="44.56847" lon="2.27652">
        <ele>320</ele>
        <time>2014-05-25T14:44:25Z</time>
      </trkpt>
      <trkpt lat="44.5685" lon="2.2764">
        <ele>318</ele>
        <time>2014-05-25T14:44:33Z</time>
      </trkpt>
      <trkpt lat="44.56852" lon="2.27638">
        <ele>318</ele>
        <time>2014-05-25T14:44:35Z</time>
      </trkpt>
      <trkpt lat="44.56875" lon="2.27607">
        <ele>318</ele>
        <time>2014-05-25T14:45:05Z</time>
      </trkpt>
      <trkpt lat="44.56879" lon="2.27603">
        <ele>318</ele>
        <time>2014-05-25T14:45:09Z</time>
      </trkpt>
      <trkpt lat="44.56908" lon="2.27585">
        <ele>321</ele>
        <time>2014-05-25T14:45:40Z</time>
      </trkpt>
      <trkpt lat="44.56909" lon="2.27583">
        <ele>321</ele>
        <time>2014-05-25T14:45:43Z</time>
      </trkpt>
      <trkpt lat="44.5691" lon="2.2758">
        <ele>321</ele>
        <time>2014-05-25T14:45:46Z</time>
      </trkpt>
      <trkpt lat="44.56939" lon="2.27571">
        <ele>326</ele>
        <time>2014-05-25T14:46:06Z</time>
      </trkpt>
      <trkpt lat="44.5694" lon="2.27569">
        <ele>326</ele>
        <time>2014-05-25T14:46:07Z</time>
      </trkpt>
      <trkpt lat="44.56948" lon="2.27568">
        <ele>327</ele>
        <time>2014-05-25T14:46:11Z</time>
      </trkpt>
      <trkpt lat="44.56949" lon="2.27565">
        <ele>327</ele>
        <time>2014-05-25T14:46:12Z</time>
      </trkpt>
      <trkpt lat="44.56978" lon="2.27541">
        <ele>328</ele>
        <time>2014-05-25T14:46:42Z</time>
      </trkpt>
      <trkpt lat="44.57011" lon="2.27515">
        <ele>329</ele>
        <time>2014-05-25T14:47:13Z</time>
      </trkpt>
      <trkpt lat="44.57033" lon="2.27491">
        <ele>329</ele>
        <time>2014-05-25T14:47:44Z</time>
      </trkpt>
      <trkpt lat="44.57039" lon="2.27486">
        <ele>329</ele>
        <time>2014-05-25T14:47:53Z</time>
      </trkpt>
      <trkpt lat="44.5704" lon="2.27484">
        <ele>329</ele>
        <time>2014-05-25T14:47:54Z</time>
      </trkpt>
      <trkpt lat="44.5706" lon="2.27465">
        <ele>331</ele>
        <time>2014-05-25T14:48:24Z</time>
      </trkpt>
      <trkpt lat="44.57086" lon="2.27429">
        <ele>332</ele>
        <time>2014-05-25T14:48:55Z</time>
      </trkpt>
      <trkpt lat="44.57105" lon="2.27401">
        <ele>333</ele>
        <time>2014-05-25T14:49:16Z</time>
      </trkpt>
      <trkpt lat="44.57138" lon="2.27368">
        <ele>336</ele>
        <time>2014-05-25T14:49:47Z</time>
      </trkpt>
      <trkpt lat="44.5714" lon="2.27366">
        <ele>336</ele>
        <time>2014-05-25T14:49:48Z</time>
      </trkpt>
      <trkpt lat="44.57171" lon="2.27341">
        <ele>339</ele>
        <time>2014-05-25T14:50:18Z</time>
      </trkpt>
      <trkpt lat="44.57176" lon="2.27336">
        <ele>339</ele>
        <time>2014-05-25T14:50:24Z</time>
      </trkpt>
      <trkpt lat="44.57183" lon="2.27332">
        <ele>340</ele>
        <time>2014-05-25T14:50:30Z</time>
      </trkpt>
      <trkpt lat="44.57184" lon="2.27329">
        <ele>340</ele>
        <time>2014-05-25T14:50:32Z</time>
      </trkpt>
      <trkpt lat="44.57209" lon="2.27316">
        <ele>343</ele>
        <time>2014-05-25T14:51:02Z</time>
      </trkpt>
      <trkpt lat="44.5724" lon="2.27292">
        <ele>346</ele>
        <time>2014-05-25T14:51:32Z</time>
      </trkpt>
      <trkpt lat="44.57243" lon="2.27289">
        <ele>346</ele>
        <time>2014-05-25T14:51:35Z</time>
      </trkpt>
      <trkpt lat="44.57249" lon="2.27288">
        <ele>347</ele>
        <time>2014-05-25T14:51:40Z</time>
      </trkpt>
      <trkpt lat="44.57274" lon="2.27257">
        <ele>348</ele>
        <time>2014-05-25T14:52:11Z</time>
      </trkpt>
      <trkpt lat="44.57302" lon="2.27232">
        <ele>350</ele>
        <time>2014-05-25T14:52:41Z</time>
      </trkpt>
      <trkpt lat="44.57303" lon="2.2723">
        <ele>350</ele>
        <time>2014-05-25T14:52:42Z</time>
      </trkpt>
      <trkpt lat="44.57315" lon="2.27218">
        <ele>351</ele>
        <time>2014-05-25T14:53:01Z</time>
      </trkpt>
      <trkpt lat="44.57323" lon="2.27209">
        <ele>351</ele>
        <time>2014-05-25T14:53:05Z</time>
      </trkpt>
      <trkpt lat="44.57338" lon="2.27195">
        <ele>353</ele>
        <time>2014-05-25T14:53:21Z</time>
      </trkpt>
      <trkpt lat="44.57339" lon="2.27191">
        <ele>353</ele>
        <time>2014-05-25T14:53:23Z</time>
      </trkpt>
      <trkpt lat="44.57352" lon="2.27166">
        <ele>355</ele>
      </trkpt>
      <trkpt lat="44.57364" lon="2.27138">
        <ele>357</ele>
        <time>2014-05-25T14:53:55Z</time>
      </trkpt>
      <trkpt lat="44.57375" lon="2.27112">
        <ele>359</ele>
        <time>2014-05-25T14:54:20Z</time>
      </trkpt>
      <trkpt lat="44.57377" lon="2.27112">
        <ele>360</ele>
        <time>2014-05-25T14:54:23Z</time>
      </trkpt>
      <trkpt lat="44.57395" lon="2.27092">
        <ele>361</ele>
        <time>2014-05-25T14:54:54Z</time>
      </trkpt>
      <trkpt lat="44.57412" lon="2.27068">
        <ele>361</ele>
        <time>2014-05-25T14:55:26Z</time>
      </trkpt>
      <trkpt lat="44.57419" lon="2.27065">
        <ele>361</ele>
        <time>2014-05-25T14:55:33Z</time>
      </trkpt>
      <trkpt lat="44.57434" lon="2.27063">
        <ele>363</ele>
        <time>2014-05-25T14:55:42Z</time>
      </trkpt>
      <trkpt lat="44.5745" lon="2.27021">
        <ele>360</ele>
        <time>2014-05-25T14:56:13Z</time>
      </trkpt>
      <trkpt lat="44.5745" lon="2.27017">
        <ele>359</ele>
        <time>2014-05-25T14:56:15Z</time>
      </trkpt>
      <trkpt lat="44.5747" lon="2.26979">
        <ele>356</ele>
        <time>2014-05-25T14:56:46Z</time>
      </trkpt>
      <trkpt lat="44.57472" lon="2.26978">
        <ele>356</ele>
        <time>2014-05-25T14:56:48Z</time>
      </trkpt>
      <trkpt lat="44.57493" lon="2.2695">
        <ele>355</ele>
        <time>2014-05-25T14:57:19Z</time>
      </trkpt>
      <trkpt lat="44.57499" lon="2.26942">
        <ele>355</ele>
        <time>2014-05-25T14:57:28Z</time>
      </trkpt>
      <trkpt lat="44.575" lon="2.26936">
        <ele>354</ele>
        <time>2014-05-25T14:57:32Z</time>
      </trkpt>
      <trkpt lat="44.57501" lon="2.26934">
        <ele>354</ele>
        <time>2014-05-25T14:57:34Z</time>
      </trkpt>
      <trkpt lat="44.57527" lon="2.26897">
        <ele>354</ele>
        <time>2014-05-25T14:58:05Z</time>
      </trkpt>
      <trkpt lat="44.57529" lon="2.2689">
        <ele>354</ele>
        <time>2014-05-25T14:58:11Z</time>
      </trkpt>
      <trkpt lat="44.57543" lon="2.26874">
        <ele>354</ele>
        <time>2014-05-25T14:58:31Z</time>
      </trkpt>
      <trkpt lat="44.57551" lon="2.26859">
        <ele>353</ele>
        <time>2014-05-25T14:58:40Z</time>
      </trkpt>
      <trkpt lat="44.5756" lon="2.26844">
        <ele>353</ele>
      </trkpt>
      <trkpt lat="44.57564" lon="2.26851">
        <ele>354</ele>
        <time>2014-05-25T14:58:56Z</time>
      </trkpt>
      <trkpt lat="44.57589" lon="2.26853">
        <ele>357</ele>
        <time>2014-05-25T14:59:26Z</time>
      </trkpt>
      <trkpt lat="44.57623" lon="2.26846">
        <ele>360</ele>
        <time>2014-05-25T14:59:59Z</time>
      </trkpt>
      <trkpt lat="44.57628" lon="2.26844">
        <ele>360</ele>
        <time>2014-05-25T15:00:03Z</time>
      </trkpt>
      <trkpt lat="44.57629" lon="2.26841">
        <ele>360</ele>
        <time>2014-05-25T15:00:06Z</time>
      </trkpt>
      <trkpt lat="44.57666" lon="2.26824">
        <ele>359</ele>
        <time>2014-05-25T15:00:37Z</time>
      </trkpt>
      <trkpt lat="44.57699" lon="2.26809">
        <ele>358</ele>
        <time>2014-05-25T15:01:07Z</time>
      </trkpt>
      <trkpt lat="44.57702" lon="2.26809">
        <ele>358</ele>
        <time>2014-05-25T15:01:11Z</time>
      </trkpt>
      <trkpt lat="44.57734" lon="2.26794">
        <ele>357</ele>
        <time>2014-05-25T15:01:41Z</time>
      </trkpt>
      <trkpt lat="44.57763" lon="2.26774">
        <ele>356</ele>
        <time>2014-05-25T15:02:12Z</time>
      </trkpt>
      <trkpt lat="44.57765" lon="2.26773">
        <ele>356</ele>
        <time>2014-05-25T15:02:14Z</time>
      </trkpt>
      <trkpt lat="44.57796" lon="2.26763">
        <ele>356</ele>
        <time>2014-05-25T15:02:44Z</time>
      </trkpt>
      <trkpt lat="44.5783" lon="2.26759">
        <ele>354</ele>
        <time>2014-05-25T15:03:15Z</time>
      </trkpt>
      <trkpt lat="44.57856" lon="2.26769">
        <ele>352</ele>
        <time>2014-05-25T15:03:46Z</time>
      </trkpt>
      <trkpt lat="44.57867" lon="2.26775">
        <ele>351</ele>
        <time>2014-05-25T15:03:48Z</time>
      </trkpt>
      <trkpt lat="44.57904" lon="2.26785">
        <ele>348</ele>
        <time>2014-05-25T15:04:19Z</time>
      </trkpt>
      <trkpt lat="44.57939" lon="2.26793">
        <ele>346</ele>
        <time>2014-05-25T15:04:49Z</time>
      </trkpt>
      <trkpt lat="44.57962" lon="2.26819">
        <ele>342</ele>
        <time>2014-05-25T15:05:19Z</time>
      </trkpt>
      <trkpt lat="44.5797" lon="2.26831">
        <ele>340</ele>
        <time>2014-05-25T15:05:30Z</time>
      </trkpt>
      <trkpt lat="44.57973" lon="2.26832">
        <ele>340</ele>
        <time>2014-05-25T15:05:32Z</time>
      </trkpt>
      <trkpt lat="44.58003" lon="2.2686">
        <ele>337</ele>
        <time>2014-05-25T15:06:02Z</time>
      </trkpt>
      <trkpt lat="44.58023" lon="2.26873">
        <ele>337</ele>
        <time>2014-05-25T15:06:22Z</time>
      </trkpt>
      <trkpt lat="44.58025" lon="2.26875">
        <ele>336</ele>
        <time>2014-05-25T15:06:24Z</time>
      </trkpt>
      <trkpt lat="44.58027" lon="2.26878">
        <ele>336</ele>
        <time>2014-05-25T15:06:27Z</time>
      </trkpt>
      <trkpt lat="44.58028" lon="2.26882">
        <ele>335</ele>
        <time>2014-05-25T15:06:29Z</time>
      </trkpt>
      <trkpt lat="44.5803" lon="2.26884">
        <ele>335</ele>
        <time>2014-05-25T15:06:31Z</time>
      </trkpt>
      <trkpt lat="44.5804" lon="2.26895">
        <ele>333</ele>
        <time>2014-05-25T15:06:53Z</time>
      </trkpt>
      <trkpt lat="44.58044" lon="2.26904">
        <ele>332</ele>
        <time>2014-05-25T15:06:55Z</time>
      </trkpt>
      <trkpt lat="44.58043" lon="2.26906">
        <ele>331</ele>
        <time>2014-05-25T15:06:57Z</time>
      </trkpt>
      <trkpt lat="44.58044" lon="2.26908">
        <ele>331</ele>
        <time>2014-05-25T15:07:00Z</time>
      </trkpt>
      <trkpt lat="44.58044" lon="2.2691">
        <ele>331</ele>
        <time>2014-05-25T15:07:01Z</time>
      </trkpt>
      <trkpt lat="44.58051" lon="2.26913">
        <ele>330</ele>
        <time>2014-05-25T15:07:09Z</time>
      </trkpt>
      <trkpt lat="44.58055" lon="2.26919">
        <ele>328</ele>
        <time>2014-05-25T15:07:12Z</time>
      </trkpt>
      <trkpt lat="44.58058" lon="2.26925">
        <ele>327</ele>
        <time>2014-05-25T15:07:14Z</time>
      </trkpt>
      <trkpt lat="44.58065" lon="2.26931">
        <ele>326</ele>
        <time>2014-05-25T15:07:17Z</time>
      </trkpt>
      <trkpt lat="44.58072" lon="2.26945">
        <ele>324</ele>
        <time>2014-05-25T15:07:37Z</time>
      </trkpt>
      <trkpt lat="44.58071" lon="2.26966">
        <ele>322</ele>
        <time>2014-05-25T15:07:45Z</time>
      </trkpt>
      <trkpt lat="44.58072" lon="2.26969">
        <ele>321</ele>
        <time>2014-05-25T15:07:51Z</time>
      </trkpt>
      <trkpt lat="44.58071" lon="2.26981">
        <ele>320</ele>
        <time>2014-05-25T15:07:53Z</time>
      </trkpt>
      <trkpt lat="44.5807" lon="2.26991">
        <ele>318</ele>
        <time>2014-05-25T15:08:07Z</time>
      </trkpt>
      <trkpt lat="44.58074" lon="2.26997">
        <ele>318</ele>
        <time>2014-05-25T15:08:09Z</time>
      </trkpt>
      <trkpt lat="44.5808" lon="2.26995">
        <ele>318</ele>
        <time>2014-05-25T15:08:13Z</time>
      </trkpt>
      <trkpt lat="44.58085" lon="2.26989">
        <ele>319</ele>
        <time>2014-05-25T15:08:16Z</time>
      </trkpt>
      <trkpt lat="44.58087" lon="2.26984">
        <ele>320</ele>
        <time>2014-05-25T15:08:18Z</time>
      </trkpt>
      <trkpt lat="44.58087" lon="2.26981">
        <ele>320</ele>
        <time>2014-05-25T15:08:20Z</time>
      </trkpt>
      <trkpt lat="44.58089" lon="2.26979">
        <ele>321</ele>
        <time>2014-05-25T15:08:23Z</time>
      </trkpt>
      <trkpt lat="44.58092" lon="2.26976">
        <ele>321</ele>
        <time>2014-05-25T15:08:27Z</time>
      </trkpt>
      <trkpt lat="44.58094" lon="2.26973">
        <ele>321</ele>
        <time>2014-05-25T15:08:29Z</time>
      </trkpt>
      <trkpt lat="44.58094" lon="2.26971">
        <ele>322</ele>
        <time>2014-05-25T15:08:31Z</time>
      </trkpt>
      <trkpt lat="44.58096" lon="2.26969">
        <ele>322</ele>
        <time>2014-05-25T15:08:34Z</time>
      </trkpt>
      <trkpt lat="44.581" lon="2.26967">
        <ele>322</ele>
        <time>2014-05-25T15:08:41Z</time>
      </trkpt>
      <trkpt lat="44.58104" lon="2.26964">
        <ele>323</ele>
        <time>2014-05-25T15:08:43Z</time>
      </trkpt>
      <trkpt lat="44.58108" lon="2.26959">
        <ele>324</ele>
        <time>2014-05-25T15:08:46Z</time>
      </trkpt>
      <trkpt lat="44.58115" lon="2.26941">
        <ele>325</ele>
        <time>2014-05-25T15:09:05Z</time>
      </trkpt>
      <trkpt lat="44.58116" lon="2.26937">
        <ele>325</ele>
        <time>2014-05-25T15:09:07Z</time>
      </trkpt>
      <trkpt lat="44.58125" lon="2.26889">
        <ele>326</ele>
        <time>2014-05-25T15:09:38Z</time>
      </trkpt>
      <trkpt lat="44.58131" lon="2.26853">
        <ele>325</ele>
        <time>2014-05-25T15:10:09Z</time>
      </trkpt>
      <trkpt lat="44.5814" lon="2.26828">
        <ele>323</ele>
        <time>2014-05-25T15:10:32Z</time>
      </trkpt>
      <trkpt lat="44.58142" lon="2.26825">
        <ele>322</ele>
        <time>2014-05-25T15:10:35Z</time>
      </trkpt>
      <trkpt lat="44.58142" lon="2.26817">
        <ele>322</ele>
        <time>2014-05-25T15:10:44Z</time>
      </trkpt>
      <trkpt lat="44.58143" lon="2.26812">
        <ele>322</ele>
        <time>2014-05-25T15:10:45Z</time>
      </trkpt>
      <trkpt lat="44.58145" lon="2.26799">
        <ele>322</ele>
        <time>2014-05-25T15:10:54Z</time>
      </trkpt>
      <trkpt lat="44.58146" lon="2.26785">
        <ele>322</ele>
        <time>2014-05-25T15:11:00Z</time>
      </trkpt>
      <trkpt lat="44.58146" lon="2.26757">
        <ele>323</ele>
        <time>2014-05-25T15:11:30Z</time>
      </trkpt>
      <trkpt lat="44.58148" lon="2.26747">
        <ele>322</ele>
        <time>2014-05-25T15:11:34Z</time>
      </trkpt>
      <trkpt lat="44.58148" lon="2.26739">
        <ele>322</ele>
        <time>2014-05-25T15:11:38Z</time>
      </trkpt>
      <trkpt lat="44.58151" lon="2.26735">
        <ele>322</ele>
        <time>2014-05-25T15:11:39Z</time>
      </trkpt>
      <trkpt lat="44.58154" lon="2.26726">
        <ele>321</ele>
        <time>2014-05-25T15:11:42Z</time>
      </trkpt>
      <trkpt lat="44.58158" lon="2.26717">
        <ele>320</ele>
        <time>2014-05-25T15:11:50Z</time>
      </trkpt>
      <trkpt lat="44.58165" lon="2.2671">
        <ele>318</ele>
        <time>2014-05-25T15:11:52Z</time>
      </trkpt>
      <trkpt lat="44.5817" lon="2.26703">
        <ele>316</ele>
        <time>2014-05-25T15:11:58Z</time>
      </trkpt>
      <trkpt lat="44.58183" lon="2.26682">
        <ele>313</ele>
        <time>2014-05-25T15:12:30Z</time>
      </trkpt>
      <trkpt lat="44.58191" lon="2.26673">
        <ele>311</ele>
        <time>2014-05-25T15:12:38Z</time>
      </trkpt>
      <trkpt lat="44.58197" lon="2.2667">
        <ele>310</ele>
        <time>2014-05-25T15:12:44Z</time>
      </trkpt>
      <trkpt lat="44.582" lon="2.26664">
        <ele>310</ele>
        <time>2014-05-25T15:12:50Z</time>
      </trkpt>
      <trkpt lat="44.58204" lon="2.26657">
        <ele>309</ele>
        <time>2014-05-25T15:12:56Z</time>
      </trkpt>
      <trkpt lat="44.58217" lon="2.2664">
        <ele>306</ele>
        <time>2014-05-25T15:13:30Z</time>
      </trkpt>
      <trkpt lat="44.58223" lon="2.26646">
        <ele>304</ele>
        <time>2014-05-25T15:13:35Z</time>
      </trkpt>
      <trkpt lat="44.5822" lon="2.26653">
        <ele>304</ele>
        <time>2014-05-25T15:14:10Z</time>
      </trkpt>
      <trkpt lat="44.58219" lon="2.2666">
        <ele>304</ele>
        <time>2014-05-25T15:14:37Z</time>
      </trkpt>
      <trkpt lat="44.58215" lon="2.26666">
        <ele>305</ele>
        <time>2014-05-25T15:14:43Z</time>
      </trkpt>
      <trkpt lat="44.58213" lon="2.26687">
        <ele>304</ele>
        <time>2014-05-25T15:15:06Z</time>
      </trkpt>
      <trkpt lat="44.58212" lon="2.267">
        <ele>304</ele>
        <time>2014-05-25T15:15:13Z</time>
      </trkpt>
      <trkpt lat="44.58212" lon="2.26713">
        <ele>303</ele>
        <time>2014-05-25T15:15:15Z</time>
      </trkpt>
      <trkpt lat="44.58211" lon="2.26758">
        <ele>299</ele>
        <time>2014-05-25T15:15:46Z</time>
      </trkpt>
      <trkpt lat="44.58214" lon="2.26762">
        <ele>298</ele>
        <time>2014-05-25T15:15:52Z</time>
      </trkpt>
      <trkpt lat="44.58223" lon="2.26781">
        <ele>293</ele>
        <time>2014-05-25T15:16:06Z</time>
      </trkpt>
      <trkpt lat="44.58226" lon="2.26781">
        <ele>293</ele>
        <time>2014-05-25T15:16:08Z</time>
      </trkpt>
      <trkpt lat="44.58227" lon="2.26783">
        <ele>292</ele>
        <time>2014-05-25T15:16:11Z</time>
      </trkpt>
      <trkpt lat="44.58227" lon="2.26788">
        <ele>292</ele>
        <time>2014-05-25T15:16:13Z</time>
      </trkpt>
      <trkpt lat="44.58228" lon="2.26791">
        <ele>291</ele>
        <time>2014-05-25T15:16:16Z</time>
      </trkpt>
      <trkpt lat="44.58232" lon="2.26795">
        <ele>290</ele>
        <time>2014-05-25T15:16:24Z</time>
      </trkpt>
      <trkpt lat="44.58238" lon="2.26805">
        <ele>288</ele>
        <time>2014-05-25T15:16:35Z</time>
      </trkpt>
      <trkpt lat="44.58237" lon="2.26819">
        <ele>289</ele>
        <time>2014-05-25T15:16:47Z</time>
      </trkpt>
      <trkpt lat="44.58238" lon="2.26821">
        <ele>289</ele>
        <time>2014-05-25T15:16:51Z</time>
      </trkpt>
      <trkpt lat="44.58243" lon="2.2686">
        <ele>288</ele>
        <time>2014-05-25T15:17:21Z</time>
      </trkpt>
      <trkpt lat="44.58246" lon="2.26861">
        <ele>288</ele>
        <time>2014-05-25T15:17:24Z</time>
      </trkpt>
      <trkpt lat="44.58245" lon="2.26875">
        <ele>272</ele>
        <time>2014-05-25T15:17:38Z</time>
      </trkpt>
      <trkpt lat="44.58237" lon="2.26882">
        <ele>291</ele>
        <time>2014-05-25T15:18:02Z</time>
      </trkpt>
      <trkpt lat="44.58239" lon="2.26893">
        <ele>290</ele>
        <time>2014-05-25T15:18:26Z</time>
      </trkpt>
      <trkpt lat="44.58226" lon="2.26927">
        <ele>293</ele>
        <time>2014-05-25T15:18:56Z</time>
      </trkpt>
      <trkpt lat="44.58224" lon="2.2693">
        <ele>294</ele>
        <time>2014-05-25T15:18:59Z</time>
      </trkpt>
      <trkpt lat="44.58221" lon="2.26944">
        <ele>295</ele>
        <time>2014-05-25T15:19:09Z</time>
      </trkpt>
      <trkpt lat="44.58222" lon="2.26946">
        <ele>294</ele>
        <time>2014-05-25T15:19:12Z</time>
      </trkpt>
      <trkpt lat="44.58223" lon="2.26952">
        <ele>294</ele>
        <time>2014-05-25T15:19:18Z</time>
      </trkpt>
      <trkpt lat="44.58219" lon="2.26955">
        <ele>295</ele>
        <time>2014-05-25T15:19:20Z</time>
      </trkpt>
      <trkpt lat="44.58218" lon="2.2696">
        <ele>295</ele>
        <time>2014-05-25T15:19:23Z</time>
      </trkpt>
      <trkpt lat="44.58208" lon="2.2697">
        <ele>297</ele>
        <time>2014-05-25T15:19:30Z</time>
      </trkpt>
      <trkpt lat="44.58206" lon="2.26975">
        <ele>297</ele>
        <time>2014-05-25T15:19:35Z</time>
      </trkpt>
      <trkpt lat="44.5821" lon="2.2699">
        <ele>293</ele>
        <time>2014-05-25T15:19:45Z</time>
      </trkpt>
      <trkpt lat="44.5819" lon="2.27042">
        <ele>292</ele>
      </trkpt>
      <trkpt lat="44.58162" lon="2.27085">
        <ele>291</ele>
        <time>2014-05-25T15:19:51Z</time>
      </trkpt>
      <trkpt lat="44.58134" lon="2.27124">
        <ele>290</ele>
        <time>2014-05-25T15:20:06Z</time>
      </trkpt>
      <trkpt lat="44.5811" lon="2.27162">
        <ele>286</ele>
        <time>2014-05-25T15:20:27Z</time>
      </trkpt>
      <trkpt lat="44.58107" lon="2.27188">
        <ele>282</ele>
      </trkpt>
      <trkpt lat="44.58117" lon="2.27201">
        <ele>276</ele>
        <time>2014-05-25T15:20:33Z</time>
      </trkpt>
      <trkpt lat="44.58126" lon="2.27203">
        <ele>273</ele>
      </trkpt>
      <trkpt lat="44.58135" lon="2.27195">
        <ele>274</ele>
        <time>2014-05-25T15:20:46Z</time>
      </trkpt>
      <trkpt lat="44.5815" lon="2.27149">
        <ele>281</ele>
        <time>2014-05-25T15:20:53Z</time>
      </trkpt>
      <trkpt lat="44.58161" lon="2.27143">
        <ele>279</ele>
      </trkpt>
      <trkpt lat="44.58169" lon="2.27142">
        <ele>277</ele>
      </trkpt>
      <trkpt lat="44.5817" lon="2.27146">
        <ele>277</ele>
        <time>2014-05-25T15:20:55Z</time>
      </trkpt>
      <trkpt lat="44.58167" lon="2.27152">
        <ele>277</ele>
      </trkpt>
      <trkpt lat="44.5816" lon="2.27157">
        <ele>277</ele>
        <time>2014-05-25T15:20:57Z</time>
      </trkpt>
      <trkpt lat="44.58155" lon="2.27175">
        <ele>276</ele>
        <time>2014-05-25T15:21:30Z</time>
      </trkpt>
      <trkpt lat="44.58149" lon="2.27194">
        <ele>273</ele>
      </trkpt>
      <trkpt lat="44.5815" lon="2.27202">
        <ele>272</ele>
      </trkpt>
      <trkpt lat="44.58151" lon="2.27212">
        <ele>271</ele>
        <time>2014-05-25T15:21:38Z</time>
      </trkpt>
      <trkpt lat="44.58158" lon="2.27228">
        <ele>271</ele>
      </trkpt>
      <trkpt lat="44.58177" lon="2.27212">
        <ele>270</ele>
        <time>2014-05-25T15:21:50Z</time>
      </trkpt>
      <trkpt lat="44.58225" lon="2.27185">
        <ele>272</ele>
        <time>2014-05-25T15:21:59Z</time>
      </trkpt>
      <trkpt lat="44.583" lon="2.27127">
        <ele>280</ele>
        <time>2014-05-25T15:22:15Z</time>
      </trkpt>
      <trkpt lat="44.58358" lon="2.27109">
        <ele>297</ele>
        <time>2014-05-25T15:33:01Z</time>
      </trkpt>
      <trkpt lat="44.58347" lon="2.27161">
        <ele>303</ele>
        <time>2014-05-25T15:33:02Z</time>
      </trkpt>
      <trkpt lat="44.58361" lon="2.27178">
        <ele>312</ele>
        <time>2014-05-25T15:33:25Z</time>
      </trkpt>
      <trkpt lat="44.58364" lon="2.27195">
        <ele>317</ele>
        <time>2014-05-25T15:33:43Z</time>
      </trkpt>
      <trkpt lat="44.58383" lon="2.27199">
        <ele>323</ele>
        <time>2014-05-25T15:33:46Z</time>
      </trkpt>
      <trkpt lat="44.58394" lon="2.27207">
        <ele>326</ele>
        <time>2014-05-25T15:33:57Z</time>
      </trkpt>
      <trkpt lat="44.58398" lon="2.27216">
        <ele>327</ele>
        <time>2014-05-25T15:34:12Z</time>
      </trkpt>
      <trkpt lat="44.58403" lon="2.27223">
        <ele>328</ele>
        <time>2014-05-25T15:34:14Z</time>
      </trkpt>
      <trkpt lat="44.58403" lon="2.27227">
        <ele>329</ele>
        <time>2014-05-25T15:34:19Z</time>
      </trkpt>
      <trkpt lat="44.5841" lon="2.27223">
        <ele>329</ele>
        <time>2014-05-25T15:34:24Z</time>
      </trkpt>
      <trkpt lat="44.58414" lon="2.27222">
        <ele>329</ele>
        <time>2014-05-25T15:34:47Z</time>
      </trkpt>
      <trkpt lat="44.5842" lon="2.27216">
        <ele>329</ele>
        <time>2014-05-25T15:34:49Z</time>
      </trkpt>
      <trkpt lat="44.58431" lon="2.27208">
        <ele>329</ele>
        <time>2014-05-25T15:34:57Z</time>
      </trkpt>
      <trkpt lat="44.58446" lon="2.27204">
        <ele>330</ele>
        <time>2014-05-25T15:35:27Z</time>
      </trkpt>
      <trkpt lat="44.58461" lon="2.27205">
        <ele>332</ele>
        <time>2014-05-25T15:35:32Z</time>
      </trkpt>
      <trkpt lat="44.58462" lon="2.27211">
        <ele>332</ele>
        <time>2014-05-25T15:35:37Z</time>
      </trkpt>
      <trkpt lat="44.5846" lon="2.27217">
        <ele>332</ele>
        <time>2014-05-25T15:35:39Z</time>
      </trkpt>
      <trkpt lat="44.58455" lon="2.27224">
        <ele>332</ele>
        <time>2014-05-25T15:35:44Z</time>
      </trkpt>
      <trkpt lat="44.58449" lon="2.27239">
        <ele>332</ele>
        <time>2014-05-25T15:35:46Z</time>
      </trkpt>
      <trkpt lat="44.58445" lon="2.27252">
        <ele>332</ele>
        <time>2014-05-25T15:36:16Z</time>
      </trkpt>
      <trkpt lat="44.58443" lon="2.27258">
        <ele>332</ele>
        <time>2014-05-25T15:36:18Z</time>
      </trkpt>
      <trkpt lat="44.5844" lon="2.27262">
        <ele>332</ele>
      </trkpt>
      <trkpt lat="44.5844" lon="2.27267">
        <ele>332</ele>
        <time>2014-05-25T15:36:20Z</time>
      </trkpt>
      <trkpt lat="44.58437" lon="2.27273">
        <ele>332</ele>
        <time>2014-05-25T15:36:22Z</time>
      </trkpt>
      <trkpt lat="44.58435" lon="2.27284">
        <ele>333</ele>
        <time>2014-05-25T15:36:25Z</time>
      </trkpt>
      <trkpt lat="44.58433" lon="2.27297">
        <ele>333</ele>
        <time>2014-05-25T15:36:28Z</time>
      </trkpt>
      <trkpt lat="44.58437" lon="2.27327">
        <ele>333</ele>
        <time>2014-05-25T15:36:59Z</time>
      </trkpt>
      <trkpt lat="44.58444" lon="2.27367">
        <ele>333</ele>
        <time>2014-05-25T15:37:29Z</time>
      </trkpt>
      <trkpt lat="44.58451" lon="2.27413">
        <ele>335</ele>
        <time>2014-05-25T15:37:59Z</time>
      </trkpt>
      <trkpt lat="44.58452" lon="2.27443">
        <ele>337</ele>
        <time>2014-05-25T15:38:29Z</time>
      </trkpt>
      <trkpt lat="44.58454" lon="2.27456">
        <ele>337</ele>
        <time>2014-05-25T15:38:39Z</time>
      </trkpt>
      <trkpt lat="44.58457" lon="2.27468">
        <ele>338</ele>
        <time>2014-05-25T15:38:52Z</time>
      </trkpt>
      <trkpt lat="44.58454" lon="2.2748">
        <ele>338</ele>
        <time>2014-05-25T15:38:54Z</time>
      </trkpt>
      <trkpt lat="44.58454" lon="2.27495">
        <ele>339</ele>
        <time>2014-05-25T15:39:18Z</time>
      </trkpt>
      <trkpt lat="44.58451" lon="2.27514">
        <ele>340</ele>
        <time>2014-05-25T15:39:22Z</time>
      </trkpt>
      <trkpt lat="44.58443" lon="2.27542">
        <ele>342</ele>
        <time>2014-05-25T15:39:53Z</time>
      </trkpt>
      <trkpt lat="44.58438" lon="2.2756">
        <ele>342</ele>
        <time>2014-05-25T15:40:24Z</time>
      </trkpt>
      <trkpt lat="44.58433" lon="2.27581">
        <ele>343</ele>
        <time>2014-05-25T15:40:25Z</time>
      </trkpt>
      <trkpt lat="44.58431" lon="2.27599">
        <ele>343</ele>
        <time>2014-05-25T15:40:29Z</time>
      </trkpt>
      <trkpt lat="44.58428" lon="2.2761">
        <ele>344</ele>
        <time>2014-05-25T15:40:33Z</time>
      </trkpt>
      <trkpt lat="44.58425" lon="2.27618">
        <ele>344</ele>
        <time>2014-05-25T15:40:36Z</time>
      </trkpt>
      <trkpt lat="44.58422" lon="2.27627">
        <ele>344</ele>
        <time>2014-05-25T15:40:41Z</time>
      </trkpt>
      <trkpt lat="44.5841" lon="2.2765">
        <ele>344</ele>
        <time>2014-05-25T15:41:11Z</time>
      </trkpt>
      <trkpt lat="44.58401" lon="2.27665">
        <ele>344</ele>
        <time>2014-05-25T15:41:12Z</time>
      </trkpt>
      <trkpt lat="44.5839" lon="2.27689">
        <ele>343</ele>
        <time>2014-05-25T15:41:43Z</time>
      </trkpt>
      <trkpt lat="44.58383" lon="2.27703">
        <ele>343</ele>
        <time>2014-05-25T15:41:45Z</time>
      </trkpt>
      <trkpt lat="44.5837" lon="2.27721">
        <ele>343</ele>
      </trkpt>
      <trkpt lat="44.5836" lon="2.27742">
        <ele>340</ele>
        <time>2014-05-25T15:42:16Z</time>
      </trkpt>
      <trkpt lat="44.58344" lon="2.27776">
        <ele>336</ele>
        <time>2014-05-25T15:42:46Z</time>
      </trkpt>
      <trkpt lat="44.58331" lon="2.27801">
        <ele>333</ele>
        <time>2014-05-25T15:43:16Z</time>
      </trkpt>
      <trkpt lat="44.58323" lon="2.27821">
        <ele>332</ele>
        <time>2014-05-25T15:43:20Z</time>
      </trkpt>
      <trkpt lat="44.5832" lon="2.27852">
        <ele>330</ele>
        <time>2014-05-25T15:43:40Z</time>
      </trkpt>
      <trkpt lat="44.58323" lon="2.27889">
        <ele>329</ele>
        <time>2014-05-25T15:44:10Z</time>
      </trkpt>
      <trkpt lat="44.58326" lon="2.27901">
        <ele>330</ele>
        <time>2014-05-25T15:44:14Z</time>
      </trkpt>
      <trkpt lat="44.58327" lon="2.27919">
        <ele>331</ele>
        <time>2014-05-25T15:44:18Z</time>
      </trkpt>
      <trkpt lat="44.58332" lon="2.2794">
        <ele>332</ele>
        <time>2014-05-25T15:44:48Z</time>
      </trkpt>
      <trkpt lat="44.58334" lon="2.27965">
        <ele>333</ele>
        <time>2014-05-25T15:45:13Z</time>
      </trkpt>
      <trkpt lat="44.58326" lon="2.27975">
        <ele>332</ele>
        <time>2014-05-25T15:45:24Z</time>
      </trkpt>
      <trkpt lat="44.58319" lon="2.27984">
        <ele>330</ele>
        <time>2014-05-25T15:45:34Z</time>
      </trkpt>
      <trkpt lat="44.58314" lon="2.27989">
        <ele>329</ele>
        <time>2014-05-25T15:45:36Z</time>
      </trkpt>
      <trkpt lat="44.58309" lon="2.27996">
        <ele>328</ele>
        <time>2014-05-25T15:45:39Z</time>
      </trkpt>
      <trkpt lat="44.58307" lon="2.28004">
        <ele>328</ele>
        <time>2014-05-25T15:45:49Z</time>
      </trkpt>
      <trkpt lat="44.58307" lon="2.2801">
        <ele>328</ele>
        <time>2014-05-25T15:45:52Z</time>
      </trkpt>
      <trkpt lat="44.58306" lon="2.28017">
        <ele>327</ele>
        <time>2014-05-25T15:46:02Z</time>
      </trkpt>
      <trkpt lat="44.58309" lon="2.28027">
        <ele>328</ele>
        <time>2014-05-25T15:46:16Z</time>
      </trkpt>
      <trkpt lat="44.58312" lon="2.28034">
        <ele>328</ele>
        <time>2014-05-25T15:46:27Z</time>
      </trkpt>
      <trkpt lat="44.58314" lon="2.28042">
        <ele>329</ele>
        <time>2014-05-25T15:46:29Z</time>
      </trkpt>
      <trkpt lat="44.58316" lon="2.28063">
        <ele>328</ele>
        <time>2014-05-25T15:46:49Z</time>
      </trkpt>
      <trkpt lat="44.58316" lon="2.28073">
        <ele>327</ele>
        <time>2014-05-25T15:46:54Z</time>
      </trkpt>
      <trkpt lat="44.58316" lon="2.28081">
        <ele>327</ele>
        <time>2014-05-25T15:46:59Z</time>
      </trkpt>
      <trkpt lat="44.58314" lon="2.28093">
        <ele>325</ele>
        <time>2014-05-25T15:47:00Z</time>
      </trkpt>
      <trkpt lat="44.58314" lon="2.28104">
        <ele>325</ele>
        <time>2014-05-25T15:47:01Z</time>
      </trkpt>
      <trkpt lat="44.58312" lon="2.28129">
        <ele>322</ele>
        <time>2014-05-25T15:47:31Z</time>
      </trkpt>
      <trkpt lat="44.58309" lon="2.28139">
        <ele>321</ele>
        <time>2014-05-25T15:47:39Z</time>
      </trkpt>
      <trkpt lat="44.58307" lon="2.28147">
        <ele>320</ele>
        <time>2014-05-25T15:47:41Z</time>
      </trkpt>
      <trkpt lat="44.58305" lon="2.2816">
        <ele>319</ele>
        <time>2014-05-25T15:47:43Z</time>
      </trkpt>
      <trkpt lat="44.58299" lon="2.28186">
        <ele>316</ele>
        <time>2014-05-25T15:48:14Z</time>
      </trkpt>
      <trkpt lat="44.58295" lon="2.28234">
        <ele>316</ele>
        <time>2014-05-25T15:48:45Z</time>
      </trkpt>
      <trkpt lat="44.58292" lon="2.28247">
        <ele>316</ele>
        <time>2014-05-25T15:48:54Z</time>
      </trkpt>
      <trkpt lat="44.58284" lon="2.28265">
        <ele>316</ele>
        <time>2014-05-25T15:49:10Z</time>
      </trkpt>
      <trkpt lat="44.5828" lon="2.28274">
        <ele>316</ele>
        <time>2014-05-25T15:49:14Z</time>
      </trkpt>
      <trkpt lat="44.58276" lon="2.28283">
        <ele>315</ele>
        <time>2014-05-25T15:49:19Z</time>
      </trkpt>
      <trkpt lat="44.58248" lon="2.28313">
        <ele>311</ele>
        <time>2014-05-25T15:49:50Z</time>
      </trkpt>
      <trkpt lat="44.58246" lon="2.28314">
        <ele>311</ele>
        <time>2014-05-25T15:49:52Z</time>
      </trkpt>
      <trkpt lat="44.58212" lon="2.28331">
        <ele>305</ele>
        <time>2014-05-25T15:50:22Z</time>
      </trkpt>
      <trkpt lat="44.58209" lon="2.28334">
        <ele>305</ele>
        <time>2014-05-25T15:50:25Z</time>
      </trkpt>
      <trkpt lat="44.58207" lon="2.28334">
        <ele>305</ele>
        <time>2014-05-25T15:50:28Z</time>
      </trkpt>
      <trkpt lat="44.58181" lon="2.28352">
        <ele>303</ele>
        <time>2014-05-25T15:50:54Z</time>
      </trkpt>
      <trkpt lat="44.58179" lon="2.28351">
        <ele>302</ele>
        <time>2014-05-25T15:50:56Z</time>
      </trkpt>
      <trkpt lat="44.58179" lon="2.28348">
        <ele>302</ele>
        <time>2014-05-25T15:50:58Z</time>
      </trkpt>
      <trkpt lat="44.58188" lon="2.28307">
        <ele>296</ele>
        <time>2014-05-25T15:51:23Z</time>
      </trkpt>
      <trkpt lat="44.58191" lon="2.28296">
        <ele>295</ele>
        <time>2014-05-25T15:51:32Z</time>
      </trkpt>
      <trkpt lat="44.58189" lon="2.28293">
        <ele>294</ele>
        <time>2014-05-25T15:51:34Z</time>
      </trkpt>
      <trkpt lat="44.58187" lon="2.28293">
        <ele>294</ele>
        <time>2014-05-25T15:51:36Z</time>
      </trkpt>
      <trkpt lat="44.58185" lon="2.28293">
        <ele>293</ele>
        <time>2014-05-25T15:51:38Z</time>
      </trkpt>
      <trkpt lat="44.58182" lon="2.28296">
        <ele>294</ele>
        <time>2014-05-25T15:51:40Z</time>
      </trkpt>
      <trkpt lat="44.58166" lon="2.28312">
        <ele>294</ele>
        <time>2014-05-25T15:51:59Z</time>
      </trkpt>
      <trkpt lat="44.58161" lon="2.28313">
        <ele>293</ele>
        <time>2014-05-25T15:52:02Z</time>
      </trkpt>
      <trkpt lat="44.58157" lon="2.28315">
        <ele>293</ele>
        <time>2014-05-25T15:52:07Z</time>
      </trkpt>
      <trkpt lat="44.58155" lon="2.28317">
        <ele>293</ele>
        <time>2014-05-25T15:52:12Z</time>
      </trkpt>
      <trkpt lat="44.58126" lon="2.28338">
        <ele>290</ele>
        <time>2014-05-25T15:52:43Z</time>
      </trkpt>
      <trkpt lat="44.58125" lon="2.28339">
        <ele>289</ele>
        <time>2014-05-25T15:52:45Z</time>
      </trkpt>
      <trkpt lat="44.58118" lon="2.2834">
        <ele>291</ele>
        <time>2014-05-25T15:52:58Z</time>
      </trkpt>
      <trkpt lat="44.58116" lon="2.28345">
        <ele>292</ele>
        <time>2014-05-25T15:53:00Z</time>
      </trkpt>
      <trkpt lat="44.58108" lon="2.28347">
        <ele>293</ele>
        <time>2014-05-25T15:53:04Z</time>
      </trkpt>
      <trkpt lat="44.58105" lon="2.28349">
        <ele>294</ele>
        <time>2014-05-25T15:53:08Z</time>
      </trkpt>
      <trkpt lat="44.58102" lon="2.2835">
        <ele>294</ele>
        <time>2014-05-25T15:53:09Z</time>
      </trkpt>
      <trkpt lat="44.58096" lon="2.28352">
        <ele>295</ele>
        <time>2014-05-25T15:53:11Z</time>
      </trkpt>
      <trkpt lat="44.58069" lon="2.28365">
        <ele>299</ele>
        <time>2014-05-25T15:53:42Z</time>
      </trkpt>
      <trkpt lat="44.58062" lon="2.28374">
        <ele>299</ele>
        <time>2014-05-25T15:53:51Z</time>
      </trkpt>
      <trkpt lat="44.58055" lon="2.28384">
        <ele>300</ele>
        <time>2014-05-25T15:54:07Z</time>
      </trkpt>
      <trkpt lat="44.5805" lon="2.28392">
        <ele>300</ele>
        <time>2014-05-25T15:54:18Z</time>
      </trkpt>
      <trkpt lat="44.58045" lon="2.28401">
        <ele>300</ele>
        <time>2014-05-25T15:54:21Z</time>
      </trkpt>
      <trkpt lat="44.58044" lon="2.28409">
        <ele>299</ele>
        <time>2014-05-25T15:54:24Z</time>
      </trkpt>
      <trkpt lat="44.58043" lon="2.28416">
        <ele>299</ele>
        <time>2014-05-25T15:54:26Z</time>
      </trkpt>
      <trkpt lat="44.58042" lon="2.2842">
        <ele>299</ele>
        <time>2014-05-25T15:54:29Z</time>
      </trkpt>
      <trkpt lat="44.58039" lon="2.28428">
        <ele>299</ele>
        <time>2014-05-25T15:54:37Z</time>
      </trkpt>
      <trkpt lat="44.58035" lon="2.28434">
        <ele>301</ele>
        <time>2014-05-25T15:54:38Z</time>
      </trkpt>
      <trkpt lat="44.58032" lon="2.2845">
        <ele>301</ele>
        <time>2014-05-25T15:54:53Z</time>
      </trkpt>
      <trkpt lat="44.58025" lon="2.28455">
        <ele>303</ele>
        <time>2014-05-25T15:54:57Z</time>
      </trkpt>
      <trkpt lat="44.58018" lon="2.28452">
        <ele>306</ele>
        <time>2014-05-25T15:55:05Z</time>
      </trkpt>
      <trkpt lat="44.58015" lon="2.28449">
        <ele>307</ele>
        <time>2014-05-25T15:55:07Z</time>
      </trkpt>
      <trkpt lat="44.58013" lon="2.28445">
        <ele>307</ele>
        <time>2014-05-25T15:55:09Z</time>
      </trkpt>
      <trkpt lat="44.5801" lon="2.28435">
        <ele>309</ele>
        <time>2014-05-25T15:55:13Z</time>
      </trkpt>
      <trkpt lat="44.58007" lon="2.28424">
        <ele>310</ele>
        <time>2014-05-25T15:55:23Z</time>
      </trkpt>
      <trkpt lat="44.57998" lon="2.28413">
        <ele>313</ele>
        <time>2014-05-25T15:55:38Z</time>
      </trkpt>
      <trkpt lat="44.57994" lon="2.28404">
        <ele>315</ele>
        <time>2014-05-25T15:55:40Z</time>
      </trkpt>
      <trkpt lat="44.57993" lon="2.28393">
        <ele>316</ele>
        <time>2014-05-25T15:55:44Z</time>
      </trkpt>
      <trkpt lat="44.57994" lon="2.28384">
        <ele>316</ele>
        <time>2014-05-25T15:55:46Z</time>
      </trkpt>
      <trkpt lat="44.57999" lon="2.28367">
        <ele>315</ele>
        <time>2014-05-25T15:55:58Z</time>
      </trkpt>
      <trkpt lat="44.58" lon="2.28353">
        <ele>315</ele>
        <time>2014-05-25T15:56:02Z</time>
      </trkpt>
      <trkpt lat="44.58004" lon="2.28336">
        <ele>316</ele>
        <time>2014-05-25T15:56:14Z</time>
      </trkpt>
      <trkpt lat="44.58009" lon="2.28317">
        <ele>316</ele>
        <time>2014-05-25T15:56:16Z</time>
      </trkpt>
      <trkpt lat="44.58017" lon="2.28302">
        <ele>316</ele>
        <time>2014-05-25T15:56:40Z</time>
      </trkpt>
      <trkpt lat="44.58024" lon="2.28296">
        <ele>316</ele>
        <time>2014-05-25T15:56:43Z</time>
      </trkpt>
      <trkpt lat="44.58027" lon="2.28293">
        <ele>316</ele>
        <time>2014-05-25T15:56:45Z</time>
      </trkpt>
      <trkpt lat="44.58031" lon="2.28288">
        <ele>317</ele>
        <time>2014-05-25T15:56:48Z</time>
      </trkpt>
      <trkpt lat="44.58033" lon="2.28284">
        <ele>317</ele>
        <time>2014-05-25T15:56:52Z</time>
      </trkpt>
      <trkpt lat="44.58037" lon="2.28289">
        <ele>316</ele>
        <time>2014-05-25T15:56:55Z</time>
      </trkpt>
      <trkpt lat="44.58037" lon="2.28283">
        <ele>317</ele>
        <time>2014-05-25T15:56:57Z</time>
      </trkpt>
      <trkpt lat="44.58041" lon="2.28276">
        <ele>318</ele>
        <time>2014-05-25T15:57:04Z</time>
      </trkpt>
      <trkpt lat="44.58045" lon="2.2827">
        <ele>317</ele>
        <time>2014-05-25T15:57:19Z</time>
      </trkpt>
      <trkpt lat="44.58047" lon="2.28259">
        <ele>319</ele>
        <time>2014-05-25T15:57:21Z</time>
      </trkpt>
      <trkpt lat="44.58054" lon="2.28252">
        <ele>317</ele>
        <time>2014-05-25T15:57:23Z</time>
      </trkpt>
      <trkpt lat="44.58052" lon="2.28248">
        <ele>318</ele>
        <time>2014-05-25T15:57:25Z</time>
      </trkpt>
      <trkpt lat="44.58051" lon="2.28245">
        <ele>319</ele>
        <time>2014-05-25T15:57:27Z</time>
      </trkpt>
      <trkpt lat="44.5805" lon="2.28244">
        <ele>320</ele>
        <time>2014-05-25T15:57:28Z</time>
      </trkpt>
      <trkpt lat="44.58047" lon="2.28243">
        <ele>321</ele>
        <time>2014-05-25T15:57:30Z</time>
      </trkpt>
      <trkpt lat="44.58041" lon="2.28245">
        <ele>323</ele>
        <time>2014-05-25T15:57:38Z</time>
      </trkpt>
      <trkpt lat="44.58038" lon="2.28245">
        <ele>323</ele>
        <time>2014-05-25T15:57:43Z</time>
      </trkpt>
      <trkpt lat="44.58035" lon="2.28244">
        <ele>323</ele>
        <time>2014-05-25T15:57:44Z</time>
      </trkpt>
      <trkpt lat="44.58029" lon="2.28242">
        <ele>323</ele>
        <time>2014-05-25T15:57:46Z</time>
      </trkpt>
      <trkpt lat="44.58026" lon="2.28245">
        <ele>323</ele>
        <time>2014-05-25T15:57:49Z</time>
      </trkpt>
      <trkpt lat="44.58026" lon="2.28248">
        <ele>322</ele>
        <time>2014-05-25T15:57:51Z</time>
      </trkpt>
      <trkpt lat="44.58023" lon="2.2825">
        <ele>322</ele>
        <time>2014-05-25T15:57:53Z</time>
      </trkpt>
      <trkpt lat="44.58023" lon="2.28253">
        <ele>321</ele>
        <time>2014-05-25T15:57:56Z</time>
      </trkpt>
      <trkpt lat="44.58019" lon="2.28258">
        <ele>321</ele>
        <time>2014-05-25T15:58:00Z</time>
      </trkpt>
      <trkpt lat="44.58007" lon="2.28259">
        <ele>321</ele>
        <time>2014-05-25T15:58:05Z</time>
      </trkpt>
      <trkpt lat="44.58006" lon="2.28263">
        <ele>321</ele>
        <time>2014-05-25T15:58:07Z</time>
      </trkpt>
      <trkpt lat="44.58004" lon="2.28264">
        <ele>321</ele>
        <time>2014-05-25T15:58:09Z</time>
      </trkpt>
      <trkpt lat="44.57998" lon="2.28273">
        <ele>320</ele>
        <time>2014-05-25T15:58:16Z</time>
      </trkpt>
      <trkpt lat="44.57996" lon="2.28273">
        <ele>320</ele>
        <time>2014-05-25T15:58:17Z</time>
      </trkpt>
      <trkpt lat="44.57995" lon="2.28274">
        <ele>320</ele>
        <time>2014-05-25T15:58:18Z</time>
      </trkpt>
      <trkpt lat="44.57994" lon="2.28276">
        <ele>320</ele>
        <time>2014-05-25T15:58:20Z</time>
      </trkpt>
      <trkpt lat="44.57993" lon="2.28278">
        <ele>320</ele>
        <time>2014-05-25T15:58:21Z</time>
      </trkpt>
      <trkpt lat="44.57976" lon="2.28314">
        <ele>321</ele>
        <time>2014-05-25T15:58:51Z</time>
      </trkpt>
      <trkpt lat="44.57976" lon="2.28318">
        <ele>321</ele>
        <time>2014-05-25T15:58:53Z</time>
      </trkpt>
      <trkpt lat="44.57973" lon="2.28325">
        <ele>322</ele>
        <time>2014-05-25T15:58:59Z</time>
      </trkpt>
      <trkpt lat="44.57972" lon="2.28327">
        <ele>322</ele>
        <time>2014-05-25T15:59:01Z</time>
      </trkpt>
      <trkpt lat="44.57971" lon="2.28329">
        <ele>322</ele>
        <time>2014-05-25T15:59:02Z</time>
      </trkpt>
      <trkpt lat="44.57969" lon="2.28333">
        <ele>323</ele>
        <time>2014-05-25T15:59:04Z</time>
      </trkpt>
      <trkpt lat="44.57967" lon="2.28333">
        <ele>323</ele>
        <time>2014-05-25T15:59:05Z</time>
      </trkpt>
      <trkpt lat="44.57965" lon="2.28334">
        <ele>324</ele>
        <time>2014-05-25T15:59:07Z</time>
      </trkpt>
      <trkpt lat="44.57956" lon="2.28357">
        <ele>326</ele>
        <time>2014-05-25T15:59:23Z</time>
      </trkpt>
      <trkpt lat="44.57956" lon="2.28359">
        <ele>327</ele>
        <time>2014-05-25T15:59:25Z</time>
      </trkpt>
      <trkpt lat="44.57953" lon="2.2837">
        <ele>327</ele>
        <time>2014-05-25T15:59:32Z</time>
      </trkpt>
      <trkpt lat="44.57947" lon="2.28403">
        <ele>328</ele>
        <time>2014-05-25T15:59:51Z</time>
      </trkpt>
      <trkpt lat="44.57945" lon="2.28403">
        <ele>328</ele>
        <time>2014-05-25T15:59:53Z</time>
      </trkpt>
      <trkpt lat="44.57943" lon="2.28405">
        <ele>329</ele>
        <time>2014-05-25T15:59:55Z</time>
      </trkpt>
      <trkpt lat="44.57937" lon="2.28411">
        <ele>329</ele>
        <time>2014-05-25T16:00:02Z</time>
      </trkpt>
      <trkpt lat="44.57933" lon="2.28421">
        <ele>330</ele>
        <time>2014-05-25T16:00:10Z</time>
      </trkpt>
      <trkpt lat="44.57934" lon="2.28426">
        <ele>330</ele>
        <time>2014-05-25T16:00:14Z</time>
      </trkpt>
      <trkpt lat="44.57927" lon="2.28443">
        <ele>331</ele>
        <time>2014-05-25T16:00:24Z</time>
      </trkpt>
      <trkpt lat="44.5791" lon="2.28487">
        <ele>334</ele>
        <time>2014-05-25T16:00:55Z</time>
      </trkpt>
      <trkpt lat="44.57908" lon="2.28489">
        <ele>334</ele>
        <time>2014-05-25T16:00:57Z</time>
      </trkpt>
      <trkpt lat="44.57906" lon="2.28496">
        <ele>335</ele>
        <time>2014-05-25T16:01:01Z</time>
      </trkpt>
      <trkpt lat="44.57906" lon="2.285">
        <ele>335</ele>
        <time>2014-05-25T16:01:03Z</time>
      </trkpt>
      <trkpt lat="44.57901" lon="2.28512">
        <ele>337</ele>
        <time>2014-05-25T16:01:11Z</time>
      </trkpt>
      <trkpt lat="44.57901" lon="2.28515">
        <ele>337</ele>
        <time>2014-05-25T16:01:13Z</time>
      </trkpt>
      <trkpt lat="44.57901" lon="2.28519">
        <ele>337</ele>
        <time>2014-05-25T16:01:16Z</time>
      </trkpt>
      <trkpt lat="44.579" lon="2.28521">
        <ele>337</ele>
        <time>2014-05-25T16:01:19Z</time>
      </trkpt>
      <trkpt lat="44.57901" lon="2.28524">
        <ele>337</ele>
        <time>2014-05-25T16:01:25Z</time>
      </trkpt>
      <trkpt lat="44.57903" lon="2.28527">
        <ele>337</ele>
        <time>2014-05-25T16:01:27Z</time>
      </trkpt>
      <trkpt lat="44.57904" lon="2.28531">
        <ele>336</ele>
        <time>2014-05-25T16:01:36Z</time>
      </trkpt>
      <trkpt lat="44.57906" lon="2.28533">
        <ele>336</ele>
        <time>2014-05-25T16:01:41Z</time>
      </trkpt>
      <trkpt lat="44.57904" lon="2.28537">
        <ele>337</ele>
        <time>2014-05-25T16:01:43Z</time>
      </trkpt>
      <trkpt lat="44.57903" lon="2.28541">
        <ele>337</ele>
        <time>2014-05-25T16:01:48Z</time>
      </trkpt>
      <trkpt lat="44.57904" lon="2.28544">
        <ele>337</ele>
        <time>2014-05-25T16:01:53Z</time>
      </trkpt>
      <trkpt lat="44.57906" lon="2.28551">
        <ele>337</ele>
        <time>2014-05-25T16:01:58Z</time>
      </trkpt>
      <trkpt lat="44.57907" lon="2.28557">
        <ele>337</ele>
        <time>2014-05-25T16:02:03Z</time>
      </trkpt>
      <trkpt lat="44.57907" lon="2.28561">
        <ele>338</ele>
        <time>2014-05-25T16:02:06Z</time>
      </trkpt>
      <trkpt lat="44.57907" lon="2.28565">
        <ele>338</ele>
        <time>2014-05-25T16:02:08Z</time>
      </trkpt>
      <trkpt lat="44.57909" lon="2.28574">
        <ele>338</ele>
        <time>2014-05-25T16:02:14Z</time>
      </trkpt>
      <trkpt lat="44.57913" lon="2.28576">
        <ele>337</ele>
        <time>2014-05-25T16:02:20Z</time>
      </trkpt>
      <trkpt lat="44.57913" lon="2.28583">
        <ele>337</ele>
        <time>2014-05-25T16:02:24Z</time>
      </trkpt>
      <trkpt lat="44.57912" lon="2.28584">
        <ele>338</ele>
        <time>2014-05-25T16:02:26Z</time>
      </trkpt>
      <trkpt lat="44.57914" lon="2.28598">
        <ele>338</ele>
        <time>2014-05-25T16:02:36Z</time>
      </trkpt>
      <trkpt lat="44.57912" lon="2.286">
        <ele>339</ele>
        <time>2014-05-25T16:02:39Z</time>
      </trkpt>
      <trkpt lat="44.5791" lon="2.28601">
        <ele>340</ele>
        <time>2014-05-25T16:02:40Z</time>
      </trkpt>
      <trkpt lat="44.57909" lon="2.28604">
        <ele>341</ele>
        <time>2014-05-25T16:02:42Z</time>
      </trkpt>
      <trkpt lat="44.57909" lon="2.28607">
        <ele>341</ele>
        <time>2014-05-25T16:02:44Z</time>
      </trkpt>
      <trkpt lat="44.57908" lon="2.28609">
        <ele>341</ele>
        <time>2014-05-25T16:02:46Z</time>
      </trkpt>
      <trkpt lat="44.5791" lon="2.28616">
        <ele>341</ele>
        <time>2014-05-25T16:02:52Z</time>
      </trkpt>
      <trkpt lat="44.57918" lon="2.28631">
        <ele>339</ele>
        <time>2014-05-25T16:03:02Z</time>
      </trkpt>
      <trkpt lat="44.57924" lon="2.28643">
        <ele>337</ele>
        <time>2014-05-25T16:03:12Z</time>
      </trkpt>
      <trkpt lat="44.57923" lon="2.28646">
        <ele>338</ele>
        <time>2014-05-25T16:03:14Z</time>
      </trkpt>
      <trkpt lat="44.57922" lon="2.28648">
        <ele>338</ele>
        <time>2014-05-25T16:03:15Z</time>
      </trkpt>
      <trkpt lat="44.57923" lon="2.28682">
        <ele>341</ele>
        <time>2014-05-25T16:03:31Z</time>
      </trkpt>
      <trkpt lat="44.57926" lon="2.28685">
        <ele>340</ele>
        <time>2014-05-25T16:03:43Z</time>
      </trkpt>
      <trkpt lat="44.57928" lon="2.28685">
        <ele>339</ele>
        <time>2014-05-25T16:03:44Z</time>
      </trkpt>
      <trkpt lat="44.57929" lon="2.2869">
        <ele>339</ele>
        <time>2014-05-25T16:03:50Z</time>
      </trkpt>
      <trkpt lat="44.57927" lon="2.28694">
        <ele>340</ele>
        <time>2014-05-25T16:03:52Z</time>
      </trkpt>
      <trkpt lat="44.57929" lon="2.28703">
        <ele>340</ele>
        <time>2014-05-25T16:03:57Z</time>
      </trkpt>
      <trkpt lat="44.57928" lon="2.28706">
        <ele>340</ele>
        <time>2014-05-25T16:03:59Z</time>
      </trkpt>
      <trkpt lat="44.57927" lon="2.28709">
        <ele>341</ele>
        <time>2014-05-25T16:04:01Z</time>
      </trkpt>
      <trkpt lat="44.57926" lon="2.28722">
        <ele>342</ele>
        <time>2014-05-25T16:04:10Z</time>
      </trkpt>
      <trkpt lat="44.57923" lon="2.28733">
        <ele>344</ele>
        <time>2014-05-25T16:04:17Z</time>
      </trkpt>
      <trkpt lat="44.57924" lon="2.28735">
        <ele>344</ele>
        <time>2014-05-25T16:04:19Z</time>
      </trkpt>
      <trkpt lat="44.5792" lon="2.28746">
        <ele>347</ele>
        <time>2014-05-25T16:04:25Z</time>
      </trkpt>
      <trkpt lat="44.57921" lon="2.28749">
        <ele>346</ele>
        <time>2014-05-25T16:04:27Z</time>
      </trkpt>
      <trkpt lat="44.57922" lon="2.28758">
        <ele>347</ele>
        <time>2014-05-25T16:04:37Z</time>
      </trkpt>
      <trkpt lat="44.5792" lon="2.2876">
        <ele>348</ele>
        <time>2014-05-25T16:04:38Z</time>
      </trkpt>
      <trkpt lat="44.57926" lon="2.28791">
        <ele>347</ele>
        <time>2014-05-25T16:04:56Z</time>
      </trkpt>
      <trkpt lat="44.57923" lon="2.28795">
        <ele>348</ele>
        <time>2014-05-25T16:04:58Z</time>
      </trkpt>
      <trkpt lat="44.57909" lon="2.28794">
        <ele>355</ele>
        <time>2014-05-25T16:05:21Z</time>
      </trkpt>
      <trkpt lat="44.57903" lon="2.28796">
        <ele>358</ele>
        <time>2014-05-25T16:05:30Z</time>
      </trkpt>
      <trkpt lat="44.57902" lon="2.28793">
        <ele>358</ele>
        <time>2014-05-25T16:05:36Z</time>
      </trkpt>
      <trkpt lat="44.57902" lon="2.2879">
        <ele>358</ele>
        <time>2014-05-25T16:05:39Z</time>
      </trkpt>
      <trkpt lat="44.57901" lon="2.28788">
        <ele>358</ele>
        <time>2014-05-25T16:05:42Z</time>
      </trkpt>
      <trkpt lat="44.579" lon="2.28784">
        <ele>358</ele>
        <time>2014-05-25T16:05:45Z</time>
      </trkpt>
      <trkpt lat="44.57898" lon="2.28781">
        <ele>359</ele>
        <time>2014-05-25T16:05:47Z</time>
      </trkpt>
      <trkpt lat="44.57896" lon="2.2878">
        <ele>360</ele>
        <time>2014-05-25T16:05:49Z</time>
      </trkpt>
      <trkpt lat="44.57895" lon="2.28771">
        <ele>360</ele>
        <time>2014-05-25T16:05:56Z</time>
      </trkpt>
      <trkpt lat="44.57874" lon="2.2873">
        <ele>368</ele>
        <time>2014-05-25T16:06:27Z</time>
      </trkpt>
      <trkpt lat="44.57872" lon="2.28729">
        <ele>368</ele>
        <time>2014-05-25T16:06:28Z</time>
      </trkpt>
      <trkpt lat="44.57871" lon="2.28726">
        <ele>368</ele>
        <time>2014-05-25T16:06:31Z</time>
      </trkpt>
      <trkpt lat="44.57872" lon="2.28723">
        <ele>368</ele>
        <time>2014-05-25T16:06:33Z</time>
      </trkpt>
      <trkpt lat="44.57871" lon="2.28719">
        <ele>367</ele>
        <time>2014-05-25T16:06:37Z</time>
      </trkpt>
      <trkpt lat="44.5787" lon="2.28716">
        <ele>367</ele>
        <time>2014-05-25T16:06:40Z</time>
      </trkpt>
      <trkpt lat="44.5787" lon="2.28714">
        <ele>367</ele>
        <time>2014-05-25T16:06:44Z</time>
      </trkpt>
      <trkpt lat="44.57874" lon="2.28706">
        <ele>367</ele>
        <time>2014-05-25T16:06:51Z</time>
      </trkpt>
      <trkpt lat="44.57876" lon="2.28702">
        <ele>366</ele>
        <time>2014-05-25T16:06:55Z</time>
      </trkpt>
      <trkpt lat="44.57877" lon="2.28699">
        <ele>365</ele>
        <time>2014-05-25T16:06:58Z</time>
      </trkpt>
      <trkpt lat="44.57876" lon="2.28694">
        <ele>365</ele>
        <time>2014-05-25T16:07:00Z</time>
      </trkpt>
      <trkpt lat="44.57876" lon="2.2869">
        <ele>365</ele>
        <time>2014-05-25T16:07:03Z</time>
      </trkpt>
      <trkpt lat="44.57875" lon="2.28688">
        <ele>365</ele>
        <time>2014-05-25T16:07:04Z</time>
      </trkpt>
      <trkpt lat="44.57872" lon="2.28656">
        <ele>361</ele>
        <time>2014-05-25T16:07:31Z</time>
      </trkpt>
      <trkpt lat="44.57869" lon="2.28654">
        <ele>361</ele>
        <time>2014-05-25T16:07:35Z</time>
      </trkpt>
      <trkpt lat="44.5787" lon="2.28651">
        <ele>361</ele>
        <time>2014-05-25T16:07:38Z</time>
      </trkpt>
      <trkpt lat="44.57869" lon="2.28648">
        <ele>360</ele>
        <time>2014-05-25T16:07:40Z</time>
      </trkpt>
      <trkpt lat="44.57852" lon="2.28616">
        <ele>357</ele>
        <time>2014-05-25T16:08:11Z</time>
      </trkpt>
      <trkpt lat="44.57843" lon="2.28602">
        <ele>355</ele>
        <time>2014-05-25T16:08:28Z</time>
      </trkpt>
      <trkpt lat="44.57836" lon="2.28598">
        <ele>355</ele>
        <time>2014-05-25T16:08:40Z</time>
      </trkpt>
      <trkpt lat="44.57823" lon="2.28602">
        <ele>355</ele>
        <time>2014-05-25T16:08:54Z</time>
      </trkpt>
      <trkpt lat="44.57821" lon="2.28606">
        <ele>356</ele>
        <time>2014-05-25T16:09:00Z</time>
      </trkpt>
      <trkpt lat="44.57819" lon="2.28619">
        <ele>357</ele>
        <time>2014-05-25T16:09:19Z</time>
      </trkpt>
      <trkpt lat="44.57822" lon="2.28623">
        <ele>357</ele>
        <time>2014-05-25T16:09:23Z</time>
      </trkpt>
      <trkpt lat="44.57823" lon="2.28649">
        <ele>360</ele>
        <time>2014-05-25T16:09:42Z</time>
      </trkpt>
      <trkpt lat="44.57819" lon="2.28651">
        <ele>360</ele>
        <time>2014-05-25T16:09:46Z</time>
      </trkpt>
      <trkpt lat="44.57814" lon="2.28664">
        <ele>362</ele>
        <time>2014-05-25T16:09:55Z</time>
      </trkpt>
      <trkpt lat="44.57813" lon="2.28665">
        <ele>362</ele>
        <time>2014-05-25T16:09:56Z</time>
      </trkpt>
      <trkpt lat="44.57811" lon="2.2867">
        <ele>362</ele>
        <time>2014-05-25T16:10:01Z</time>
      </trkpt>
      <trkpt lat="44.57809" lon="2.28672">
        <ele>363</ele>
        <time>2014-05-25T16:10:03Z</time>
      </trkpt>
      <trkpt lat="44.57793" lon="2.2867">
        <ele>362</ele>
        <time>2014-05-25T16:10:22Z</time>
      </trkpt>
      <trkpt lat="44.57791" lon="2.28672">
        <ele>363</ele>
        <time>2014-05-25T16:10:23Z</time>
      </trkpt>
      <trkpt lat="44.57788" lon="2.28673">
        <ele>363</ele>
        <time>2014-05-25T16:10:26Z</time>
      </trkpt>
      <trkpt lat="44.57785" lon="2.28676">
        <ele>363</ele>
        <time>2014-05-25T16:10:29Z</time>
      </trkpt>
      <trkpt lat="44.57784" lon="2.28676">
        <ele>364</ele>
        <time>2014-05-25T16:10:31Z</time>
      </trkpt>
      <trkpt lat="44.57753" lon="2.28699">
        <ele>367</ele>
        <time>2014-05-25T16:11:01Z</time>
      </trkpt>
      <trkpt lat="44.57717" lon="2.28728">
        <ele>367</ele>
        <time>2014-05-25T16:11:31Z</time>
      </trkpt>
      <trkpt lat="44.57716" lon="2.28729">
        <ele>367</ele>
        <time>2014-05-25T16:11:35Z</time>
      </trkpt>
      <trkpt lat="44.57705" lon="2.28737">
        <ele>367</ele>
        <time>2014-05-25T16:11:45Z</time>
      </trkpt>
      <trkpt lat="44.57705" lon="2.28739">
        <ele>367</ele>
        <time>2014-05-25T16:11:47Z</time>
      </trkpt>
      <trkpt lat="44.57701" lon="2.28741">
        <ele>368</ele>
        <time>2014-05-25T16:11:50Z</time>
      </trkpt>
      <trkpt lat="44.57692" lon="2.28751">
        <ele>369</ele>
        <time>2014-05-25T16:11:57Z</time>
      </trkpt>
      <trkpt lat="44.57691" lon="2.28753">
        <ele>369</ele>
        <time>2014-05-25T16:11:58Z</time>
      </trkpt>
      <trkpt lat="44.57688" lon="2.28761">
        <ele>369</ele>
        <time>2014-05-25T16:12:02Z</time>
      </trkpt>
      <trkpt lat="44.57688" lon="2.28764">
        <ele>369</ele>
        <time>2014-05-25T16:12:03Z</time>
      </trkpt>
      <trkpt lat="44.57688" lon="2.28766">
        <ele>369</ele>
        <time>2014-05-25T16:12:04Z</time>
      </trkpt>
      <trkpt lat="44.57685" lon="2.28769">
        <ele>369</ele>
        <time>2014-05-25T16:12:08Z</time>
      </trkpt>
      <trkpt lat="44.57681" lon="2.2877">
        <ele>370</ele>
        <time>2014-05-25T16:12:11Z</time>
      </trkpt>
      <trkpt lat="44.5766" lon="2.28785">
        <ele>372</ele>
        <time>2014-05-25T16:12:29Z</time>
      </trkpt>
      <trkpt lat="44.57659" lon="2.28787">
        <ele>372</ele>
        <time>2014-05-25T16:12:31Z</time>
      </trkpt>
      <trkpt lat="44.57656" lon="2.28789">
        <ele>372</ele>
        <time>2014-05-25T16:12:35Z</time>
      </trkpt>
      <trkpt lat="44.57655" lon="2.2879">
        <ele>372</ele>
        <time>2014-05-25T16:12:37Z</time>
      </trkpt>
      <trkpt lat="44.57653" lon="2.28791">
        <ele>372</ele>
        <time>2014-05-25T16:12:39Z</time>
      </trkpt>
      <trkpt lat="44.57651" lon="2.28791">
        <ele>373</ele>
        <time>2014-05-25T16:12:40Z</time>
      </trkpt>
      <trkpt lat="44.57649" lon="2.28792">
        <ele>373</ele>
        <time>2014-05-25T16:12:42Z</time>
      </trkpt>
      <trkpt lat="44.57636" lon="2.28795">
        <ele>374</ele>
        <time>2014-05-25T16:12:52Z</time>
      </trkpt>
      <trkpt lat="44.57633" lon="2.28798">
        <ele>375</ele>
        <time>2014-05-25T16:12:54Z</time>
      </trkpt>
      <trkpt lat="44.5763" lon="2.28799">
        <ele>375</ele>
        <time>2014-05-25T16:12:56Z</time>
      </trkpt>
      <trkpt lat="44.57626" lon="2.28801">
        <ele>375</ele>
        <time>2014-05-25T16:12:58Z</time>
      </trkpt>
      <trkpt lat="44.57614" lon="2.28803">
        <ele>377</ele>
        <time>2014-05-25T16:13:08Z</time>
      </trkpt>
      <trkpt lat="44.5761" lon="2.28812">
        <ele>377</ele>
        <time>2014-05-25T16:13:20Z</time>
      </trkpt>
      <trkpt lat="44.57608" lon="2.28813">
        <ele>377</ele>
        <time>2014-05-25T16:13:22Z</time>
      </trkpt>
      <trkpt lat="44.57604" lon="2.28813">
        <ele>378</ele>
        <time>2014-05-25T16:13:26Z</time>
      </trkpt>
      <trkpt lat="44.57602" lon="2.28811">
        <ele>378</ele>
        <time>2014-05-25T16:13:28Z</time>
      </trkpt>
      <trkpt lat="44.57601" lon="2.28807">
        <ele>379</ele>
        <time>2014-05-25T16:13:30Z</time>
      </trkpt>
      <trkpt lat="44.57601" lon="2.28804">
        <ele>379</ele>
        <time>2014-05-25T16:13:32Z</time>
      </trkpt>
      <trkpt lat="44.57609" lon="2.28793">
        <ele>379</ele>
        <time>2014-05-25T16:13:42Z</time>
      </trkpt>
      <trkpt lat="44.57608" lon="2.28787">
        <ele>380</ele>
        <time>2014-05-25T16:13:46Z</time>
      </trkpt>
      <trkpt lat="44.57612" lon="2.28779">
        <ele>380</ele>
        <time>2014-05-25T16:13:52Z</time>
      </trkpt>
      <trkpt lat="44.57619" lon="2.28768">
        <ele>380</ele>
        <time>2014-05-25T16:14:01Z</time>
      </trkpt>
      <trkpt lat="44.57625" lon="2.28766">
        <ele>379</ele>
        <time>2014-05-25T16:14:06Z</time>
      </trkpt>
      <trkpt lat="44.57626" lon="2.28758">
        <ele>380</ele>
        <time>2014-05-25T16:14:13Z</time>
      </trkpt>
      <trkpt lat="44.57635" lon="2.28742">
        <ele>381</ele>
        <time>2014-05-25T16:14:23Z</time>
      </trkpt>
      <trkpt lat="44.57635" lon="2.28739">
        <ele>381</ele>
        <time>2014-05-25T16:14:28Z</time>
      </trkpt>
      <trkpt lat="44.57637" lon="2.28735">
        <ele>381</ele>
        <time>2014-05-25T16:14:34Z</time>
      </trkpt>
      <trkpt lat="44.57639" lon="2.28734">
        <ele>381</ele>
        <time>2014-05-25T16:14:38Z</time>
      </trkpt>
      <trkpt lat="44.57637" lon="2.28731">
        <ele>382</ele>
        <time>2014-05-25T16:14:41Z</time>
      </trkpt>
      <trkpt lat="44.57649" lon="2.28684">
        <ele>382</ele>
        <time>2014-05-25T16:15:12Z</time>
      </trkpt>
      <trkpt lat="44.57663" lon="2.28639">
        <ele>381</ele>
        <time>2014-05-25T16:15:42Z</time>
      </trkpt>
      <trkpt lat="44.57662" lon="2.28636">
        <ele>381</ele>
        <time>2014-05-25T16:15:43Z</time>
      </trkpt>
      <trkpt lat="44.57665" lon="2.2862">
        <ele>381</ele>
        <time>2014-05-25T16:15:53Z</time>
      </trkpt>
      <trkpt lat="44.57662" lon="2.28575">
        <ele>385</ele>
        <time>2014-05-25T16:16:23Z</time>
      </trkpt>
      <trkpt lat="44.57661" lon="2.28571">
        <ele>385</ele>
        <time>2014-05-25T16:16:25Z</time>
      </trkpt>
      <trkpt lat="44.57648" lon="2.28533">
        <ele>391</ele>
        <time>2014-05-25T16:16:56Z</time>
      </trkpt>
      <trkpt lat="44.57646" lon="2.28527">
        <ele>392</ele>
        <time>2014-05-25T16:17:03Z</time>
      </trkpt>
      <trkpt lat="44.57621" lon="2.28511">
        <ele>399</ele>
        <time>2014-05-25T16:17:33Z</time>
      </trkpt>
      <trkpt lat="44.5761" lon="2.28498">
        <ele>402</ele>
        <time>2014-05-25T16:17:47Z</time>
      </trkpt>
      <trkpt lat="44.57609" lon="2.28495">
        <ele>403</ele>
        <time>2014-05-25T16:17:49Z</time>
      </trkpt>
      <trkpt lat="44.57603" lon="2.28485">
        <ele>405</ele>
        <time>2014-05-25T16:17:59Z</time>
      </trkpt>
      <trkpt lat="44.57602" lon="2.28484">
        <ele>405</ele>
        <time>2014-05-25T16:18:00Z</time>
      </trkpt>
      <trkpt lat="44.576" lon="2.28481">
        <ele>406</ele>
        <time>2014-05-25T16:18:03Z</time>
      </trkpt>
      <trkpt lat="44.57598" lon="2.28478">
        <ele>406</ele>
        <time>2014-05-25T16:18:05Z</time>
      </trkpt>
      <trkpt lat="44.57597" lon="2.28474">
        <ele>407</ele>
        <time>2014-05-25T16:18:08Z</time>
      </trkpt>
      <trkpt lat="44.57597" lon="2.28472">
        <ele>407</ele>
        <time>2014-05-25T16:18:10Z</time>
      </trkpt>
      <trkpt lat="44.57596" lon="2.2847">
        <ele>407</ele>
        <time>2014-05-25T16:18:13Z</time>
      </trkpt>
      <trkpt lat="44.57602" lon="2.28448">
        <ele>407</ele>
        <time>2014-05-25T16:18:33Z</time>
      </trkpt>
      <trkpt lat="44.57615" lon="2.28411">
        <ele>406</ele>
        <time>2014-05-25T16:19:03Z</time>
      </trkpt>
      <trkpt lat="44.57617" lon="2.28408">
        <ele>406</ele>
        <time>2014-05-25T16:19:05Z</time>
      </trkpt>
      <trkpt lat="44.57616" lon="2.28404">
        <ele>406</ele>
        <time>2014-05-25T16:19:08Z</time>
      </trkpt>
      <trkpt lat="44.57617" lon="2.28402">
        <ele>406</ele>
        <time>2014-05-25T16:19:09Z</time>
      </trkpt>
      <trkpt lat="44.5762" lon="2.28361">
        <ele>405</ele>
        <time>2014-05-25T16:19:39Z</time>
      </trkpt>
      <trkpt lat="44.57622" lon="2.28318">
        <ele>399</ele>
        <time>2014-05-25T16:20:10Z</time>
      </trkpt>
      <trkpt lat="44.57623" lon="2.28315">
        <ele>399</ele>
        <time>2014-05-25T16:20:12Z</time>
      </trkpt>
      <trkpt lat="44.57622" lon="2.28313">
        <ele>399</ele>
        <time>2014-05-25T16:20:14Z</time>
      </trkpt>
      <trkpt lat="44.57621" lon="2.28312">
        <ele>398</ele>
        <time>2014-05-25T16:20:16Z</time>
      </trkpt>
      <trkpt lat="44.5762" lon="2.2831">
        <ele>398</ele>
        <time>2014-05-25T16:20:17Z</time>
      </trkpt>
      <trkpt lat="44.57617" lon="2.28306">
        <ele>397</ele>
        <time>2014-05-25T16:20:21Z</time>
      </trkpt>
      <trkpt lat="44.57616" lon="2.28305">
        <ele>397</ele>
        <time>2014-05-25T16:20:22Z</time>
      </trkpt>
      <trkpt lat="44.57614" lon="2.28303">
        <ele>397</ele>
        <time>2014-05-25T16:20:26Z</time>
      </trkpt>
      <trkpt lat="44.57613" lon="2.28302">
        <ele>396</ele>
        <time>2014-05-25T16:20:27Z</time>
      </trkpt>
      <trkpt lat="44.57607" lon="2.28299">
        <ele>395</ele>
        <time>2014-05-25T16:20:34Z</time>
      </trkpt>
      <trkpt lat="44.57606" lon="2.28299">
        <ele>395</ele>
        <time>2014-05-25T16:20:35Z</time>
      </trkpt>
      <trkpt lat="44.57605" lon="2.28299">
        <ele>395</ele>
        <time>2014-05-25T16:20:36Z</time>
      </trkpt>
      <trkpt lat="44.57595" lon="2.28303">
        <ele>395</ele>
        <time>2014-05-25T16:20:47Z</time>
      </trkpt>
      <trkpt lat="44.57593" lon="2.28305">
        <ele>395</ele>
        <time>2014-05-25T16:20:49Z</time>
      </trkpt>
      <trkpt lat="44.57593" lon="2.28308">
        <ele>396</ele>
        <time>2014-05-25T16:20:51Z</time>
      </trkpt>
      <trkpt lat="44.57593" lon="2.28311">
        <ele>396</ele>
        <time>2014-05-25T16:20:53Z</time>
      </trkpt>
      <trkpt lat="44.57583" lon="2.28353">
        <ele>404</ele>
        <time>2014-05-25T16:21:23Z</time>
      </trkpt>
      <trkpt lat="44.57562" lon="2.28388">
        <ele>411</ele>
        <time>2014-05-25T16:21:53Z</time>
      </trkpt>
      <trkpt lat="44.5756" lon="2.28388">
        <ele>411</ele>
        <time>2014-05-25T16:21:54Z</time>
      </trkpt>
      <trkpt lat="44.57556" lon="2.28395">
        <ele>411</ele>
        <time>2014-05-25T16:22:00Z</time>
      </trkpt>
      <trkpt lat="44.57555" lon="2.28395">
        <ele>411</ele>
        <time>2014-05-25T16:22:01Z</time>
      </trkpt>
      <trkpt lat="44.57526" lon="2.28412">
        <ele>412</ele>
        <time>2014-05-25T16:22:31Z</time>
      </trkpt>
      <trkpt lat="44.5752" lon="2.28412">
        <ele>412</ele>
        <time>2014-05-25T16:22:37Z</time>
      </trkpt>
      <trkpt lat="44.57519" lon="2.28411">
        <ele>412</ele>
        <time>2014-05-25T16:22:38Z</time>
      </trkpt>
      <trkpt lat="44.57518" lon="2.28412">
        <ele>411</ele>
        <time>2014-05-25T16:22:39Z</time>
      </trkpt>
      <trkpt lat="44.57516" lon="2.28411">
        <ele>411</ele>
        <time>2014-05-25T16:22:40Z</time>
      </trkpt>
      <trkpt lat="44.57513" lon="2.28412">
        <ele>411</ele>
        <time>2014-05-25T16:22:44Z</time>
      </trkpt>
      <trkpt lat="44.57511" lon="2.28411">
        <ele>411</ele>
        <time>2014-05-25T16:22:47Z</time>
      </trkpt>
      <trkpt lat="44.57481" lon="2.28416">
        <ele>409</ele>
        <time>2014-05-25T16:23:18Z</time>
      </trkpt>
      <trkpt lat="44.57479" lon="2.28416">
        <ele>409</ele>
        <time>2014-05-25T16:23:20Z</time>
      </trkpt>
      <trkpt lat="44.57459" lon="2.28432">
        <ele>411</ele>
        <time>2014-05-25T16:23:39Z</time>
      </trkpt>
      <trkpt lat="44.57435" lon="2.28468">
        <ele>415</ele>
        <time>2014-05-25T16:24:09Z</time>
      </trkpt>
      <trkpt lat="44.57418" lon="2.28505">
        <ele>417</ele>
        <time>2014-05-25T16:24:39Z</time>
      </trkpt>
      <trkpt lat="44.57397" lon="2.28541">
        <ele>421</ele>
        <time>2014-05-25T16:25:09Z</time>
      </trkpt>
      <trkpt lat="44.57377" lon="2.28578">
        <ele>425</ele>
        <time>2014-05-25T16:25:39Z</time>
      </trkpt>
      <trkpt lat="44.57357" lon="2.28606">
        <ele>426</ele>
        <time>2014-05-25T16:26:09Z</time>
      </trkpt>
      <trkpt lat="44.57328" lon="2.28632">
        <ele>426</ele>
        <time>2014-05-25T16:26:40Z</time>
      </trkpt>
      <trkpt lat="44.57327" lon="2.28633">
        <ele>426</ele>
        <time>2014-05-25T16:26:41Z</time>
      </trkpt>
      <trkpt lat="44.57326" lon="2.28634">
        <ele>426</ele>
        <time>2014-05-25T16:26:42Z</time>
      </trkpt>
      <trkpt lat="44.57323" lon="2.28635">
        <ele>426</ele>
        <time>2014-05-25T16:26:44Z</time>
      </trkpt>
      <trkpt lat="44.57299" lon="2.28641">
        <ele>424</ele>
        <time>2014-05-25T16:27:07Z</time>
      </trkpt>
      <trkpt lat="44.57297" lon="2.28639">
        <ele>424</ele>
        <time>2014-05-25T16:27:09Z</time>
      </trkpt>
      <trkpt lat="44.57289" lon="2.28635">
        <ele>423</ele>
        <time>2014-05-25T16:27:17Z</time>
      </trkpt>
      <trkpt lat="44.57287" lon="2.28636">
        <ele>423</ele>
        <time>2014-05-25T16:27:19Z</time>
      </trkpt>
      <trkpt lat="44.57285" lon="2.28636">
        <ele>423</ele>
        <time>2014-05-25T16:27:21Z</time>
      </trkpt>
      <trkpt lat="44.57284" lon="2.28638">
        <ele>424</ele>
        <time>2014-05-25T16:27:22Z</time>
      </trkpt>
      <trkpt lat="44.57282" lon="2.28638">
        <ele>424</ele>
        <time>2014-05-25T16:27:26Z</time>
      </trkpt>
      <trkpt lat="44.57279" lon="2.28642">
        <ele>425</ele>
        <time>2014-05-25T16:27:31Z</time>
      </trkpt>
      <trkpt lat="44.57278" lon="2.28645">
        <ele>425</ele>
        <time>2014-05-25T16:27:33Z</time>
      </trkpt>
      <trkpt lat="44.57276" lon="2.28644">
        <ele>425</ele>
        <time>2014-05-25T16:27:36Z</time>
      </trkpt>
      <trkpt lat="44.57274" lon="2.28644">
        <ele>425</ele>
        <time>2014-05-25T16:27:38Z</time>
      </trkpt>
      <trkpt lat="44.57242" lon="2.28667">
        <ele>430</ele>
        <time>2014-05-25T16:28:06Z</time>
      </trkpt>
      <trkpt lat="44.57241" lon="2.28665">
        <ele>430</ele>
        <time>2014-05-25T16:28:07Z</time>
      </trkpt>
      <trkpt lat="44.57207" lon="2.28668">
        <ele>432</ele>
        <time>2014-05-25T16:28:37Z</time>
      </trkpt>
      <trkpt lat="44.57206" lon="2.28668">
        <ele>432</ele>
        <time>2014-05-25T16:28:38Z</time>
      </trkpt>
      <trkpt lat="44.57171" lon="2.28661">
        <ele>434</ele>
        <time>2014-05-25T16:29:08Z</time>
      </trkpt>
      <trkpt lat="44.57168" lon="2.28659">
        <ele>434</ele>
        <time>2014-05-25T16:29:10Z</time>
      </trkpt>
      <trkpt lat="44.57165" lon="2.28657">
        <ele>434</ele>
        <time>2014-05-25T16:29:12Z</time>
      </trkpt>
      <trkpt lat="44.57128" lon="2.28642">
        <ele>436</ele>
        <time>2014-05-25T16:29:43Z</time>
      </trkpt>
      <trkpt lat="44.57125" lon="2.28639">
        <ele>436</ele>
        <time>2014-05-25T16:29:45Z</time>
      </trkpt>
      <trkpt lat="44.57106" lon="2.28629">
        <ele>433</ele>
      </trkpt>
      <trkpt lat="44.57088" lon="2.28634">
        <ele>432</ele>
        <time>2014-05-25T16:30:16Z</time>
      </trkpt>
      <trkpt lat="44.57054" lon="2.28656">
        <ele>433</ele>
        <time>2014-05-25T16:30:47Z</time>
      </trkpt>
      <trkpt lat="44.57051" lon="2.28657">
        <ele>433</ele>
        <time>2014-05-25T16:30:49Z</time>
      </trkpt>
      <trkpt lat="44.5705" lon="2.28657">
        <ele>433</ele>
        <time>2014-05-25T16:30:50Z</time>
      </trkpt>
      <trkpt lat="44.57018" lon="2.28664">
        <ele>432</ele>
        <time>2014-05-25T16:31:20Z</time>
      </trkpt>
      <trkpt lat="44.57016" lon="2.28666">
        <ele>433</ele>
        <time>2014-05-25T16:31:22Z</time>
      </trkpt>
      <trkpt lat="44.57015" lon="2.28667">
        <ele>433</ele>
        <time>2014-05-25T16:31:23Z</time>
      </trkpt>
      <trkpt lat="44.57013" lon="2.2867">
        <ele>433</ele>
        <time>2014-05-25T16:31:25Z</time>
      </trkpt>
      <trkpt lat="44.57011" lon="2.2867">
        <ele>433</ele>
        <time>2014-05-25T16:31:27Z</time>
      </trkpt>
      <trkpt lat="44.56974" lon="2.28686">
        <ele>433</ele>
        <time>2014-05-25T16:31:57Z</time>
      </trkpt>
      <trkpt lat="44.56971" lon="2.28687">
        <ele>433</ele>
        <time>2014-05-25T16:32:00Z</time>
      </trkpt>
      <trkpt lat="44.5697" lon="2.28687">
        <ele>433</ele>
        <time>2014-05-25T16:32:03Z</time>
      </trkpt>
      <trkpt lat="44.56935" lon="2.28701">
        <ele>434</ele>
        <time>2014-05-25T16:32:33Z</time>
      </trkpt>
      <trkpt lat="44.56934" lon="2.28701">
        <ele>434</ele>
        <time>2014-05-25T16:32:34Z</time>
      </trkpt>
      <trkpt lat="44.56931" lon="2.28702">
        <ele>434</ele>
        <time>2014-05-25T16:32:36Z</time>
      </trkpt>
      <trkpt lat="44.56897" lon="2.28717">
        <ele>434</ele>
        <time>2014-05-25T16:33:07Z</time>
      </trkpt>
      <trkpt lat="44.56892" lon="2.28721">
        <ele>434</ele>
        <time>2014-05-25T16:33:12Z</time>
      </trkpt>
      <trkpt lat="44.5689" lon="2.28722">
        <ele>434</ele>
        <time>2014-05-25T16:33:14Z</time>
      </trkpt>
      <trkpt lat="44.56889" lon="2.28722">
        <ele>434</ele>
        <time>2014-05-25T16:33:15Z</time>
      </trkpt>
      <trkpt lat="44.56886" lon="2.28723">
        <ele>433</ele>
        <time>2014-05-25T16:33:17Z</time>
      </trkpt>
      <trkpt lat="44.56884" lon="2.28723">
        <ele>433</ele>
        <time>2014-05-25T16:33:18Z</time>
      </trkpt>
      <trkpt lat="44.56882" lon="2.28724">
        <ele>433</ele>
        <time>2014-05-25T16:33:20Z</time>
      </trkpt>
      <trkpt lat="44.56878" lon="2.28721">
        <ele>433</ele>
        <time>2014-05-25T16:33:29Z</time>
      </trkpt>
      <trkpt lat="44.56863" lon="2.28717">
        <ele>432</ele>
        <time>2014-05-25T16:33:42Z</time>
      </trkpt>
      <trkpt lat="44.5686" lon="2.28715">
        <ele>431</ele>
        <time>2014-05-25T16:33:48Z</time>
      </trkpt>
      <trkpt lat="44.56858" lon="2.28717">
        <ele>431</ele>
        <time>2014-05-25T16:33:50Z</time>
      </trkpt>
      <trkpt lat="44.56858" lon="2.28715">
        <ele>431</ele>
        <time>2014-05-25T16:33:52Z</time>
      </trkpt>
      <trkpt lat="44.56856" lon="2.28716">
        <ele>431</ele>
        <time>2014-05-25T16:33:56Z</time>
      </trkpt>
      <trkpt lat="44.56855" lon="2.28712">
        <ele>431</ele>
        <time>2014-05-25T16:34:02Z</time>
      </trkpt>
      <trkpt lat="44.56854" lon="2.28714">
        <ele>431</ele>
        <time>2014-05-25T16:34:05Z</time>
      </trkpt>
      <trkpt lat="44.56853" lon="2.28716">
        <ele>431</ele>
        <time>2014-05-25T16:34:07Z</time>
      </trkpt>
      <trkpt lat="44.56852" lon="2.28722">
        <ele>430</ele>
        <time>2014-05-25T16:34:12Z</time>
      </trkpt>
      <trkpt lat="44.56851" lon="2.28768">
        <ele>429</ele>
        <time>2014-05-25T16:34:43Z</time>
      </trkpt>
      <trkpt lat="44.56843" lon="2.28821">
        <ele>426</ele>
        <time>2014-05-25T16:35:13Z</time>
      </trkpt>
      <trkpt lat="44.56843" lon="2.28833">
        <ele>426</ele>
        <time>2014-05-25T16:35:21Z</time>
      </trkpt>
      <trkpt lat="44.56842" lon="2.28836">
        <ele>426</ele>
        <time>2014-05-25T16:35:23Z</time>
      </trkpt>
      <trkpt lat="44.56808" lon="2.28866">
        <ele>417</ele>
        <time>2014-05-25T16:35:54Z</time>
      </trkpt>
      <trkpt lat="44.56805" lon="2.28868">
        <ele>416</ele>
        <time>2014-05-25T16:35:57Z</time>
      </trkpt>
      <trkpt lat="44.568" lon="2.28873">
        <ele>415</ele>
        <time>2014-05-25T16:36:06Z</time>
      </trkpt>
      <trkpt lat="44.56795" lon="2.28876">
        <ele>414</ele>
        <time>2014-05-25T16:36:12Z</time>
      </trkpt>
      <trkpt lat="44.56794" lon="2.28876">
        <ele>414</ele>
        <time>2014-05-25T16:36:13Z</time>
      </trkpt>
      <trkpt lat="44.56792" lon="2.28875">
        <ele>413</ele>
        <time>2014-05-25T16:36:15Z</time>
      </trkpt>
      <trkpt lat="44.5679" lon="2.28875">
        <ele>413</ele>
        <time>2014-05-25T16:36:17Z</time>
      </trkpt>
      <trkpt lat="44.56787" lon="2.28876">
        <ele>412</ele>
        <time>2014-05-25T16:36:19Z</time>
      </trkpt>
      <trkpt lat="44.56781" lon="2.28872">
        <ele>410</ele>
        <time>2014-05-25T16:36:21Z</time>
      </trkpt>
      <trkpt lat="44.56765" lon="2.28881">
        <ele>406</ele>
        <time>2014-05-25T16:36:30Z</time>
      </trkpt>
      <trkpt lat="44.56763" lon="2.2888">
        <ele>405</ele>
        <time>2014-05-25T16:36:32Z</time>
      </trkpt>
      <trkpt lat="44.56761" lon="2.28881">
        <ele>405</ele>
        <time>2014-05-25T16:36:33Z</time>
      </trkpt>
      <trkpt lat="44.56759" lon="2.28881">
        <ele>404</ele>
        <time>2014-05-25T16:36:34Z</time>
      </trkpt>
      <trkpt lat="44.56756" lon="2.28882">
        <ele>404</ele>
        <time>2014-05-25T16:36:36Z</time>
      </trkpt>
      <trkpt lat="44.56724" lon="2.28871">
        <ele>393</ele>
        <time>2014-05-25T16:37:03Z</time>
      </trkpt>
      <trkpt lat="44.56706" lon="2.28873">
        <ele>388</ele>
        <time>2014-05-25T16:37:19Z</time>
      </trkpt>
      <trkpt lat="44.567" lon="2.28877">
        <ele>386</ele>
        <time>2014-05-25T16:37:21Z</time>
      </trkpt>
      <trkpt lat="44.56698" lon="2.28882">
        <ele>386</ele>
        <time>2014-05-25T16:37:24Z</time>
      </trkpt>
      <trkpt lat="44.56696" lon="2.28885">
        <ele>385</ele>
        <time>2014-05-25T16:37:27Z</time>
      </trkpt>
      <trkpt lat="44.56697" lon="2.28888">
        <ele>386</ele>
        <time>2014-05-25T16:37:29Z</time>
      </trkpt>
      <trkpt lat="44.56696" lon="2.28889">
        <ele>386</ele>
        <time>2014-05-25T16:37:30Z</time>
      </trkpt>
      <trkpt lat="44.56694" lon="2.2889">
        <ele>385</ele>
        <time>2014-05-25T16:37:32Z</time>
      </trkpt>
      <trkpt lat="44.56685" lon="2.28897">
        <ele>382</ele>
        <time>2014-05-25T16:37:41Z</time>
      </trkpt>
      <trkpt lat="44.56677" lon="2.28923">
        <ele>382</ele>
        <time>2014-05-25T16:37:55Z</time>
      </trkpt>
      <trkpt lat="44.56678" lon="2.28925">
        <ele>382</ele>
        <time>2014-05-25T16:37:58Z</time>
      </trkpt>
      <trkpt lat="44.56677" lon="2.28927">
        <ele>382</ele>
        <time>2014-05-25T16:38:01Z</time>
      </trkpt>
      <trkpt lat="44.56671" lon="2.28948">
        <ele>382</ele>
        <time>2014-05-25T16:38:14Z</time>
      </trkpt>
      <trkpt lat="44.56665" lon="2.28952">
        <ele>380</ele>
        <time>2014-05-25T16:38:20Z</time>
      </trkpt>
      <trkpt lat="44.56642" lon="2.28984">
        <ele>374</ele>
        <time>2014-05-25T16:38:50Z</time>
      </trkpt>
      <trkpt lat="44.56639" lon="2.28985">
        <ele>373</ele>
        <time>2014-05-25T16:38:52Z</time>
      </trkpt>
      <trkpt lat="44.56635" lon="2.2899">
        <ele>372</ele>
        <time>2014-05-25T16:38:56Z</time>
      </trkpt>
      <trkpt lat="44.5663" lon="2.28995">
        <ele>371</ele>
        <time>2014-05-25T16:39:01Z</time>
      </trkpt>
      <trkpt lat="44.56628" lon="2.28999">
        <ele>370</ele>
        <time>2014-05-25T16:39:07Z</time>
      </trkpt>
      <trkpt lat="44.56621" lon="2.29005">
        <ele>370</ele>
        <time>2014-05-25T16:39:14Z</time>
      </trkpt>
      <trkpt lat="44.56616" lon="2.29016">
        <ele>371</ele>
        <time>2014-05-25T16:39:19Z</time>
      </trkpt>
      <trkpt lat="44.56599" lon="2.29038">
        <ele>371</ele>
        <time>2014-05-25T16:39:49Z</time>
      </trkpt>
      <trkpt lat="44.56592" lon="2.29046">
        <ele>371</ele>
        <time>2014-05-25T16:39:50Z</time>
      </trkpt>
      <trkpt lat="44.56583" lon="2.29063">
        <ele>372</ele>
        <time>2014-05-25T16:39:51Z</time>
      </trkpt>
      <trkpt lat="44.56576" lon="2.29084">
        <ele>373</ele>
        <time>2014-05-25T16:39:53Z</time>
      </trkpt>
      <trkpt lat="44.56568" lon="2.29085">
        <ele>371</ele>
        <time>2014-05-25T16:40:24Z</time>
      </trkpt>
      <trkpt lat="44.56561" lon="2.29087">
        <ele>371</ele>
        <time>2014-05-25T16:40:29Z</time>
      </trkpt>
      <trkpt lat="44.56549" lon="2.29084">
        <ele>368</ele>
        <time>2014-05-25T16:40:31Z</time>
      </trkpt>
      <trkpt lat="44.56523" lon="2.29084">
        <ele>371</ele>
        <time>2014-05-25T16:41:01Z</time>
      </trkpt>
      <trkpt lat="44.5651" lon="2.29096">
        <ele>373</ele>
        <time>2014-05-25T16:41:11Z</time>
      </trkpt>
      <trkpt lat="44.56504" lon="2.29106">
        <ele>374</ele>
        <time>2014-05-25T16:41:21Z</time>
      </trkpt>
      <trkpt lat="44.56503" lon="2.29115">
        <ele>374</ele>
        <time>2014-05-25T16:41:30Z</time>
      </trkpt>
      <trkpt lat="44.565" lon="2.29118">
        <ele>374</ele>
        <time>2014-05-25T16:41:32Z</time>
      </trkpt>
      <trkpt lat="44.56497" lon="2.29113">
        <ele>375</ele>
        <time>2014-05-25T16:41:41Z</time>
      </trkpt>
      <trkpt lat="44.56499" lon="2.29123">
        <ele>374</ele>
        <time>2014-05-25T16:42:12Z</time>
      </trkpt>
      <trkpt lat="44.56501" lon="2.29121">
        <ele>374</ele>
        <time>2014-05-25T16:42:32Z</time>
      </trkpt>
      <trkpt lat="44.56497" lon="2.2911">
        <ele>375</ele>
        <time>2014-05-25T16:42:35Z</time>
      </trkpt>
      <trkpt lat="44.56493" lon="2.291">
        <ele>376</ele>
        <time>2014-05-25T16:42:42Z</time>
      </trkpt>
      <trkpt lat="44.56491" lon="2.29092">
        <ele>377</ele>
        <time>2014-05-25T16:42:46Z</time>
      </trkpt>
      <trkpt lat="44.5649" lon="2.29083">
        <ele>378</ele>
        <time>2014-05-25T16:42:48Z</time>
      </trkpt>
      <trkpt lat="44.56492" lon="2.29062">
        <ele>379</ele>
        <time>2014-05-25T16:43:05Z</time>
      </trkpt>
      <trkpt lat="44.56495" lon="2.29049">
        <ele>379</ele>
        <time>2014-05-25T16:43:12Z</time>
      </trkpt>
      <trkpt lat="44.56494" lon="2.29046">
        <ele>380</ele>
        <time>2014-05-25T16:43:15Z</time>
      </trkpt>
      <trkpt lat="44.56496" lon="2.29029">
        <ele>381</ele>
        <time>2014-05-25T16:43:31Z</time>
      </trkpt>
      <trkpt lat="44.56495" lon="2.29025">
        <ele>382</ele>
        <time>2014-05-25T16:43:33Z</time>
      </trkpt>
      <trkpt lat="44.56496" lon="2.29018">
        <ele>382</ele>
        <time>2014-05-25T16:43:36Z</time>
      </trkpt>
      <trkpt lat="44.56495" lon="2.29016">
        <ele>383</ele>
        <time>2014-05-25T16:43:37Z</time>
      </trkpt>
      <trkpt lat="44.56499" lon="2.28999">
        <ele>383</ele>
        <time>2014-05-25T16:43:46Z</time>
      </trkpt>
      <trkpt lat="44.56499" lon="2.28995">
        <ele>384</ele>
        <time>2014-05-25T16:43:48Z</time>
      </trkpt>
      <trkpt lat="44.56507" lon="2.28979">
        <ele>383</ele>
        <time>2014-05-25T16:44:10Z</time>
      </trkpt>
      <trkpt lat="44.56511" lon="2.2897">
        <ele>381</ele>
        <time>2014-05-25T16:44:19Z</time>
      </trkpt>
      <trkpt lat="44.56513" lon="2.28959">
        <ele>382</ele>
        <time>2014-05-25T16:44:29Z</time>
      </trkpt>
      <trkpt lat="44.56533" lon="2.28919">
        <ele>377</ele>
        <time>2014-05-25T16:45:00Z</time>
      </trkpt>
      <trkpt lat="44.56534" lon="2.28915">
        <ele>377</ele>
        <time>2014-05-25T16:45:02Z</time>
      </trkpt>
      <trkpt lat="44.56534" lon="2.2891">
        <ele>377</ele>
        <time>2014-05-25T16:45:04Z</time>
      </trkpt>
      <trkpt lat="44.56535" lon="2.28907">
        <ele>377</ele>
        <time>2014-05-25T16:45:05Z</time>
      </trkpt>
      <trkpt lat="44.56534" lon="2.28904">
        <ele>378</ele>
        <time>2014-05-25T16:45:06Z</time>
      </trkpt>
      <trkpt lat="44.56537" lon="2.28901">
        <ele>377</ele>
        <time>2014-05-25T16:45:07Z</time>
      </trkpt>
      <trkpt lat="44.56546" lon="2.28831">
        <ele>375</ele>
        <time>2014-05-25T16:45:37Z</time>
      </trkpt>
      <trkpt lat="44.56543" lon="2.28818">
        <ele>376</ele>
        <time>2014-05-25T16:45:45Z</time>
      </trkpt>
      <trkpt lat="44.56545" lon="2.28816">
        <ele>375</ele>
        <time>2014-05-25T16:45:46Z</time>
      </trkpt>
      <trkpt lat="44.56546" lon="2.28813">
        <ele>375</ele>
        <time>2014-05-25T16:45:48Z</time>
      </trkpt>
      <trkpt lat="44.56544" lon="2.28811">
        <ele>375</ele>
        <time>2014-05-25T16:45:51Z</time>
      </trkpt>
      <trkpt lat="44.56544" lon="2.28807">
        <ele>375</ele>
        <time>2014-05-25T16:45:53Z</time>
      </trkpt>
      <trkpt lat="44.5655" lon="2.28775">
        <ele>371</ele>
        <time>2014-05-25T16:46:16Z</time>
      </trkpt>
      <trkpt lat="44.56549" lon="2.28772">
        <ele>371</ele>
        <time>2014-05-25T16:46:18Z</time>
      </trkpt>
      <trkpt lat="44.56547" lon="2.28771">
        <ele>371</ele>
        <time>2014-05-25T16:46:20Z</time>
      </trkpt>
      <trkpt lat="44.56547" lon="2.28768">
        <ele>371</ele>
        <time>2014-05-25T16:46:23Z</time>
      </trkpt>
      <trkpt lat="44.56545" lon="2.28766">
        <ele>371</ele>
        <time>2014-05-25T16:46:25Z</time>
      </trkpt>
      <trkpt lat="44.5654" lon="2.28763">
        <ele>373</ele>
        <time>2014-05-25T16:46:27Z</time>
      </trkpt>
      <trkpt lat="44.56539" lon="2.2876">
        <ele>372</ele>
        <time>2014-05-25T16:46:28Z</time>
      </trkpt>
      <trkpt lat="44.56536" lon="2.28746">
        <ele>373</ele>
        <time>2014-05-25T16:46:35Z</time>
      </trkpt>
      <trkpt lat="44.56533" lon="2.28743">
        <ele>374</ele>
        <time>2014-05-25T16:46:37Z</time>
      </trkpt>
      <trkpt lat="44.56526" lon="2.28728">
        <ele>376</ele>
        <time>2014-05-25T16:46:45Z</time>
      </trkpt>
      <trkpt lat="44.56526" lon="2.28724">
        <ele>376</ele>
        <time>2014-05-25T16:46:47Z</time>
      </trkpt>
      <trkpt lat="44.56527" lon="2.28722">
        <ele>375</ele>
        <time>2014-05-25T16:46:49Z</time>
      </trkpt>
      <trkpt lat="44.5653" lon="2.28713">
        <ele>372</ele>
        <time>2014-05-25T16:46:57Z</time>
      </trkpt>
      <trkpt lat="44.56528" lon="2.287">
        <ele>372</ele>
        <time>2014-05-25T16:47:03Z</time>
      </trkpt>
      <trkpt lat="44.5652" lon="2.28678">
        <ele>375</ele>
        <time>2014-05-25T16:47:15Z</time>
      </trkpt>
      <trkpt lat="44.56519" lon="2.28667">
        <ele>375</ele>
        <time>2014-05-25T16:47:25Z</time>
      </trkpt>
      <trkpt lat="44.56517" lon="2.28663">
        <ele>375</ele>
        <time>2014-05-25T16:47:30Z</time>
      </trkpt>
      <trkpt lat="44.56516" lon="2.28659">
        <ele>375</ele>
        <time>2014-05-25T16:47:33Z</time>
      </trkpt>
      <trkpt lat="44.56518" lon="2.28652">
        <ele>374</ele>
        <time>2014-05-25T16:47:37Z</time>
      </trkpt>
      <trkpt lat="44.56515" lon="2.2865">
        <ele>375</ele>
        <time>2014-05-25T16:47:38Z</time>
      </trkpt>
      <trkpt lat="44.56516" lon="2.28645">
        <ele>374</ele>
        <time>2014-05-25T16:47:39Z</time>
      </trkpt>
      <trkpt lat="44.56512" lon="2.28637">
        <ele>376</ele>
        <time>2014-05-25T16:47:44Z</time>
      </trkpt>
      <trkpt lat="44.56509" lon="2.28635">
        <ele>377</ele>
        <time>2014-05-25T16:47:46Z</time>
      </trkpt>
      <trkpt lat="44.56507" lon="2.28635">
        <ele>379</ele>
        <time>2014-05-25T16:47:47Z</time>
      </trkpt>
      <trkpt lat="44.56506" lon="2.28632">
        <ele>379</ele>
        <time>2014-05-25T16:47:49Z</time>
      </trkpt>
      <trkpt lat="44.56506" lon="2.28628">
        <ele>379</ele>
        <time>2014-05-25T16:47:51Z</time>
      </trkpt>
      <trkpt lat="44.56503" lon="2.28625">
        <ele>380</ele>
        <time>2014-05-25T16:47:55Z</time>
      </trkpt>
      <trkpt lat="44.56501" lon="2.28623">
        <ele>381</ele>
        <time>2014-05-25T16:47:58Z</time>
      </trkpt>
      <trkpt lat="44.56494" lon="2.2862">
        <ele>385</ele>
        <time>2014-05-25T16:48:03Z</time>
      </trkpt>
      <trkpt lat="44.56493" lon="2.28611">
        <ele>384</ele>
        <time>2014-05-25T16:48:06Z</time>
      </trkpt>
      <trkpt lat="44.5649" lon="2.28607">
        <ele>385</ele>
        <time>2014-05-25T16:48:10Z</time>
      </trkpt>
      <trkpt lat="44.56489" lon="2.28604">
        <ele>385</ele>
        <time>2014-05-25T16:48:12Z</time>
      </trkpt>
      <trkpt lat="44.56488" lon="2.28603">
        <ele>386</ele>
        <time>2014-05-25T16:48:14Z</time>
      </trkpt>
      <trkpt lat="44.56489" lon="2.28596">
        <ele>384</ele>
        <time>2014-05-25T16:48:18Z</time>
      </trkpt>
      <trkpt lat="44.56487" lon="2.28554">
        <ele>379</ele>
        <time>2014-05-25T16:48:40Z</time>
      </trkpt>
      <trkpt lat="44.56484" lon="2.28547">
        <ele>380</ele>
        <time>2014-05-25T16:48:43Z</time>
      </trkpt>
      <trkpt lat="44.56484" lon="2.28543">
        <ele>379</ele>
        <time>2014-05-25T16:48:45Z</time>
      </trkpt>
      <trkpt lat="44.56485" lon="2.28539">
        <ele>378</ele>
        <time>2014-05-25T16:48:47Z</time>
      </trkpt>
      <trkpt lat="44.56484" lon="2.28537">
        <ele>378</ele>
        <time>2014-05-25T16:48:51Z</time>
      </trkpt>
      <trkpt lat="44.56484" lon="2.2853">
        <ele>378</ele>
        <time>2014-05-25T16:48:54Z</time>
      </trkpt>
      <trkpt lat="44.56481" lon="2.28527">
        <ele>379</ele>
        <time>2014-05-25T16:48:56Z</time>
      </trkpt>
      <trkpt lat="44.56483" lon="2.28503">
        <ele>375</ele>
        <time>2014-05-25T16:49:09Z</time>
      </trkpt>
      <trkpt lat="44.56484" lon="2.28485">
        <ele>373</ele>
        <time>2014-05-25T16:49:18Z</time>
      </trkpt>
      <trkpt lat="44.56486" lon="2.28482">
        <ele>372</ele>
        <time>2014-05-25T16:49:20Z</time>
      </trkpt>
      <trkpt lat="44.56489" lon="2.28472">
        <ele>369</ele>
        <time>2014-05-25T16:49:24Z</time>
      </trkpt>
      <trkpt lat="44.5649" lon="2.28475">
        <ele>369</ele>
        <time>2014-05-25T16:49:30Z</time>
      </trkpt>
      <trkpt lat="44.56481" lon="2.28475">
        <ele>373</ele>
        <time>2014-05-25T16:49:37Z</time>
      </trkpt>
      <trkpt lat="44.56484" lon="2.28471">
        <ele>371</ele>
        <time>2014-05-25T16:49:40Z</time>
      </trkpt>
      <trkpt lat="44.56485" lon="2.28467">
        <ele>371</ele>
        <time>2014-05-25T16:49:43Z</time>
      </trkpt>
      <trkpt lat="44.56486" lon="2.28465">
        <ele>370</ele>
        <time>2014-05-25T16:49:45Z</time>
      </trkpt>
      <trkpt lat="44.56485" lon="2.28461">
        <ele>370</ele>
        <time>2014-05-25T16:50:05Z</time>
      </trkpt>
      <trkpt lat="44.56481" lon="2.28461">
        <ele>372</ele>
        <time>2014-05-25T16:50:10Z</time>
      </trkpt>
      <trkpt lat="44.56485" lon="2.2846">
        <ele>370</ele>
        <time>2014-05-25T16:50:27Z</time>
      </trkpt>
      <trkpt lat="44.5649" lon="2.28459">
        <ele>367</ele>
        <time>2014-05-25T16:50:31Z</time>
      </trkpt>
      <trkpt lat="44.56488" lon="2.28454">
        <ele>367</ele>
        <time>2014-05-25T16:50:47Z</time>
      </trkpt>
      <trkpt lat="44.56485" lon="2.28453">
        <ele>369</ele>
        <time>2014-05-25T16:50:56Z</time>
      </trkpt>
      <trkpt lat="44.56481" lon="2.28455">
        <ele>371</ele>
        <time>2014-05-25T16:51:03Z</time>
      </trkpt>
      <trkpt lat="44.56479" lon="2.28457">
        <ele>372</ele>
        <time>2014-05-25T16:51:10Z</time>
      </trkpt>
      <trkpt lat="44.56477" lon="2.28454">
        <ele>372</ele>
        <time>2014-05-25T16:51:27Z</time>
      </trkpt>
      <trkpt lat="44.56484" lon="2.2845">
        <ele>369</ele>
        <time>2014-05-25T16:51:30Z</time>
      </trkpt>
      <trkpt lat="44.56487" lon="2.28448">
        <ele>367</ele>
        <time>2014-05-25T16:51:31Z</time>
      </trkpt>
      <trkpt lat="44.56488" lon="2.28443">
        <ele>366</ele>
        <time>2014-05-25T16:51:33Z</time>
      </trkpt>
      <trkpt lat="44.56486" lon="2.28441">
        <ele>366</ele>
        <time>2014-05-25T16:51:34Z</time>
      </trkpt>
      <trkpt lat="44.56481" lon="2.28434">
        <ele>367</ele>
        <time>2014-05-25T16:51:38Z</time>
      </trkpt>
      <trkpt lat="44.56482" lon="2.28434">
        <ele>367</ele>
        <time>2014-05-25T16:51:43Z</time>
      </trkpt>
      <trkpt lat="44.56482" lon="2.28428">
        <ele>366</ele>
        <time>2014-05-25T16:51:44Z</time>
      </trkpt>
      <trkpt lat="44.56482" lon="2.28425">
        <ele>365</ele>
        <time>2014-05-25T16:51:49Z</time>
      </trkpt>
      <trkpt lat="44.56482" lon="2.28419">
        <ele>364</ele>
        <time>2014-05-25T16:51:53Z</time>
      </trkpt>
      <trkpt lat="44.56483" lon="2.28415">
        <ele>363</ele>
        <time>2014-05-25T16:51:55Z</time>
      </trkpt>
      <trkpt lat="44.56484" lon="2.28401">
        <ele>360</ele>
        <time>2014-05-25T16:51:57Z</time>
      </trkpt>
      <trkpt lat="44.56483" lon="2.28389">
        <ele>359</ele>
        <time>2014-05-25T16:52:05Z</time>
      </trkpt>
      <trkpt lat="44.5648" lon="2.2838">
        <ele>358</ele>
        <time>2014-05-25T16:52:08Z</time>
      </trkpt>
      <trkpt lat="44.56478" lon="2.28377">
        <ele>358</ele>
        <time>2014-05-25T16:52:10Z</time>
      </trkpt>
      <trkpt lat="44.56478" lon="2.2837">
        <ele>357</ele>
        <time>2014-05-25T16:52:13Z</time>
      </trkpt>
      <trkpt lat="44.56476" lon="2.28364">
        <ele>358</ele>
        <time>2014-05-25T16:52:16Z</time>
      </trkpt>
      <trkpt lat="44.56456" lon="2.28329">
        <ele>361</ele>
        <time>2014-05-25T16:52:38Z</time>
      </trkpt>
      <trkpt lat="44.56453" lon="2.28328">
        <ele>361</ele>
        <time>2014-05-25T16:52:40Z</time>
      </trkpt>
      <trkpt lat="44.5645" lon="2.28322">
        <ele>361</ele>
        <time>2014-05-25T16:52:44Z</time>
      </trkpt>
      <trkpt lat="44.56447" lon="2.28313">
        <ele>360</ele>
        <time>2014-05-25T16:52:49Z</time>
      </trkpt>
      <trkpt lat="44.56447" lon="2.2831">
        <ele>360</ele>
        <time>2014-05-25T16:52:52Z</time>
      </trkpt>
      <trkpt lat="44.56448" lon="2.28302">
        <ele>359</ele>
        <time>2014-05-25T16:52:56Z</time>
      </trkpt>
      <trkpt lat="44.56447" lon="2.28299">
        <ele>358</ele>
        <time>2014-05-25T16:52:58Z</time>
      </trkpt>
      <trkpt lat="44.56455" lon="2.28276">
        <ele>355</ele>
        <time>2014-05-25T16:53:06Z</time>
      </trkpt>
      <trkpt lat="44.56453" lon="2.28271">
        <ele>354</ele>
        <time>2014-05-25T16:53:08Z</time>
      </trkpt>
      <trkpt lat="44.56454" lon="2.28269">
        <ele>354</ele>
        <time>2014-05-25T16:53:09Z</time>
      </trkpt>
      <trkpt lat="44.56453" lon="2.28264">
        <ele>354</ele>
        <time>2014-05-25T16:53:11Z</time>
      </trkpt>
      <trkpt lat="44.56453" lon="2.28256">
        <ele>353</ele>
        <time>2014-05-25T16:53:14Z</time>
      </trkpt>
      <trkpt lat="44.5645" lon="2.28246">
        <ele>352</ele>
        <time>2014-05-25T16:53:20Z</time>
      </trkpt>
      <trkpt lat="44.56446" lon="2.2824">
        <ele>352</ele>
        <time>2014-05-25T16:53:24Z</time>
      </trkpt>
      <trkpt lat="44.56444" lon="2.28238">
        <ele>352</ele>
        <time>2014-05-25T16:53:25Z</time>
      </trkpt>
      <trkpt lat="44.56443" lon="2.28236">
        <ele>352</ele>
        <time>2014-05-25T16:53:26Z</time>
      </trkpt>
      <trkpt lat="44.5644" lon="2.28232">
        <ele>352</ele>
        <time>2014-05-25T16:53:28Z</time>
      </trkpt>
      <trkpt lat="44.56439" lon="2.28229">
        <ele>351</ele>
        <time>2014-05-25T16:53:30Z</time>
      </trkpt>
      <trkpt lat="44.56437" lon="2.28226">
        <ele>351</ele>
        <time>2014-05-25T16:53:32Z</time>
      </trkpt>
      <trkpt lat="44.56436" lon="2.28222">
        <ele>351</ele>
        <time>2014-05-25T16:53:34Z</time>
      </trkpt>
      <trkpt lat="44.56433" lon="2.28209">
        <ele>350</ele>
        <time>2014-05-25T16:53:40Z</time>
      </trkpt>
      <trkpt lat="44.56434" lon="2.28199">
        <ele>349</ele>
        <time>2014-05-25T16:53:44Z</time>
      </trkpt>
      <trkpt lat="44.56433" lon="2.28196">
        <ele>349</ele>
        <time>2014-05-25T16:53:46Z</time>
      </trkpt>
      <trkpt lat="44.56435" lon="2.28183">
        <ele>347</ele>
        <time>2014-05-25T16:53:52Z</time>
      </trkpt>
      <trkpt lat="44.56433" lon="2.28179">
        <ele>347</ele>
        <time>2014-05-25T16:53:54Z</time>
      </trkpt>
      <trkpt lat="44.56436" lon="2.28172">
        <ele>346</ele>
        <time>2014-05-25T16:53:56Z</time>
      </trkpt>
      <trkpt lat="44.56426" lon="2.28101">
        <ele>342</ele>
        <time>2014-05-25T16:54:26Z</time>
      </trkpt>
      <trkpt lat="44.56426" lon="2.28093">
        <ele>342</ele>
        <time>2014-05-25T16:54:29Z</time>
      </trkpt>
      <trkpt lat="44.56425" lon="2.28091">
        <ele>342</ele>
        <time>2014-05-25T16:54:30Z</time>
      </trkpt>
      <trkpt lat="44.56424" lon="2.28086">
        <ele>342</ele>
        <time>2014-05-25T16:54:32Z</time>
      </trkpt>
      <trkpt lat="44.56422" lon="2.28084">
        <ele>342</ele>
        <time>2014-05-25T16:54:33Z</time>
      </trkpt>
      <trkpt lat="44.56422" lon="2.28082">
        <ele>342</ele>
        <time>2014-05-25T16:54:34Z</time>
      </trkpt>
      <trkpt lat="44.56418" lon="2.28074">
        <ele>342</ele>
        <time>2014-05-25T16:54:36Z</time>
      </trkpt>
      <trkpt lat="44.56416" lon="2.2805">
        <ele>341</ele>
        <time>2014-05-25T16:54:44Z</time>
      </trkpt>
      <trkpt lat="44.56414" lon="2.28048">
        <ele>341</ele>
        <time>2014-05-25T16:54:45Z</time>
      </trkpt>
      <trkpt lat="44.56396" lon="2.27992">
        <ele>343</ele>
        <time>2014-05-25T16:55:15Z</time>
      </trkpt>
      <trkpt lat="44.56391" lon="2.2798">
        <ele>344</ele>
        <time>2014-05-25T16:55:16Z</time>
      </trkpt>
      <trkpt lat="44.56389" lon="2.27974">
        <ele>344</ele>
        <time>2014-05-25T16:55:17Z</time>
      </trkpt>
      <trkpt lat="44.56385" lon="2.27966">
        <ele>345</ele>
        <time>2014-05-25T16:55:23Z</time>
      </trkpt>
      <trkpt lat="44.56382" lon="2.27957">
        <ele>345</ele>
        <time>2014-05-25T16:55:25Z</time>
      </trkpt>
      <trkpt lat="44.56378" lon="2.27947">
        <ele>345</ele>
        <time>2014-05-25T16:55:29Z</time>
      </trkpt>
      <trkpt lat="44.56379" lon="2.27939">
        <ele>344</ele>
        <time>2014-05-25T16:55:30Z</time>
      </trkpt>
      <trkpt lat="44.56377" lon="2.27931">
        <ele>344</ele>
        <time>2014-05-25T16:55:32Z</time>
      </trkpt>
      <trkpt lat="44.56375" lon="2.27923">
        <ele>344</ele>
        <time>2014-05-25T16:55:33Z</time>
      </trkpt>
      <trkpt lat="44.56372" lon="2.2791">
        <ele>342</ele>
        <time>2014-05-25T16:55:43Z</time>
      </trkpt>
      <trkpt lat="44.56371" lon="2.27893">
        <ele>340</ele>
        <time>2014-05-25T16:55:54Z</time>
      </trkpt>
      <trkpt lat="44.56369" lon="2.27876">
        <ele>339</ele>
        <time>2014-05-25T16:56:05Z</time>
      </trkpt>
      <trkpt lat="44.56368" lon="2.27863">
        <ele>338</ele>
        <time>2014-05-25T16:56:07Z</time>
      </trkpt>
      <trkpt lat="44.56367" lon="2.27845">
        <ele>336</ele>
        <time>2014-05-25T16:56:26Z</time>
      </trkpt>
      <trkpt lat="44.56365" lon="2.27831">
        <ele>335</ele>
        <time>2014-05-25T16:56:27Z</time>
      </trkpt>
      <trkpt lat="44.56362" lon="2.27823">
        <ele>333</ele>
        <time>2014-05-25T16:56:30Z</time>
      </trkpt>
      <trkpt lat="44.56358" lon="2.27819">
        <ele>333</ele>
        <time>2014-05-25T16:56:32Z</time>
      </trkpt>
      <trkpt lat="44.56354" lon="2.27815">
        <ele>332</ele>
        <time>2014-05-25T16:56:34Z</time>
      </trkpt>
      <trkpt lat="44.56351" lon="2.27812">
        <ele>331</ele>
        <time>2014-05-25T16:56:39Z</time>
      </trkpt>
      <trkpt lat="44.56348" lon="2.27808">
        <ele>330</ele>
        <time>2014-05-25T16:56:40Z</time>
      </trkpt>
      <trkpt lat="44.56349" lon="2.27802">
        <ele>329</ele>
        <time>2014-05-25T16:56:44Z</time>
      </trkpt>
      <trkpt lat="44.56348" lon="2.27798">
        <ele>329</ele>
        <time>2014-05-25T16:56:46Z</time>
      </trkpt>
      <trkpt lat="44.5635" lon="2.27788">
        <ele>328</ele>
        <time>2014-05-25T16:56:52Z</time>
      </trkpt>
      <trkpt lat="44.56359" lon="2.27764">
        <ele>328</ele>
        <time>2014-05-25T16:57:08Z</time>
      </trkpt>
      <trkpt lat="44.56362" lon="2.27754">
        <ele>328</ele>
        <time>2014-05-25T16:57:26Z</time>
      </trkpt>
      <trkpt lat="44.56364" lon="2.27743">
        <ele>328</ele>
        <time>2014-05-25T16:57:27Z</time>
      </trkpt>
      <trkpt lat="44.56369" lon="2.27737">
        <ele>328</ele>
        <time>2014-05-25T16:57:29Z</time>
      </trkpt>
      <trkpt lat="44.56372" lon="2.27731">
        <ele>329</ele>
        <time>2014-05-25T16:57:38Z</time>
      </trkpt>
      <trkpt lat="44.56373" lon="2.27727">
        <ele>329</ele>
        <time>2014-05-25T16:57:40Z</time>
      </trkpt>
      <trkpt lat="44.56376" lon="2.27717">
        <ele>329</ele>
        <time>2014-05-25T16:57:56Z</time>
      </trkpt>
      <trkpt lat="44.5638" lon="2.27703">
        <ele>328</ele>
        <time>2014-05-25T16:57:57Z</time>
      </trkpt>
      <trkpt lat="44.56381" lon="2.27694">
        <ele>327</ele>
        <time>2014-05-25T16:57:58Z</time>
      </trkpt>
      <trkpt lat="44.56382" lon="2.27692">
        <ele>327</ele>
        <time>2014-05-25T16:57:59Z</time>
      </trkpt>
      <trkpt lat="44.56383" lon="2.27684">
        <ele>327</ele>
        <time>2014-05-25T16:58:02Z</time>
      </trkpt>
      <trkpt lat="44.56385" lon="2.27679">
        <ele>326</ele>
        <time>2014-05-25T16:58:03Z</time>
      </trkpt>
      <trkpt lat="44.56388" lon="2.27673">
        <ele>326</ele>
        <time>2014-05-25T16:58:07Z</time>
      </trkpt>
      <trkpt lat="44.5639" lon="2.27665">
        <ele>326</ele>
        <time>2014-05-25T16:58:15Z</time>
      </trkpt>
      <trkpt lat="44.56397" lon="2.27634">
        <ele>325</ele>
        <time>2014-05-25T16:58:45Z</time>
      </trkpt>
      <trkpt lat="44.56402" lon="2.27623">
        <ele>325</ele>
        <time>2014-05-25T16:58:50Z</time>
      </trkpt>
      <trkpt lat="44.56413" lon="2.27591">
        <ele>324</ele>
        <time>2014-05-25T16:59:20Z</time>
      </trkpt>
      <trkpt lat="44.56419" lon="2.27542">
        <ele>322</ele>
        <time>2014-05-25T16:59:50Z</time>
      </trkpt>
      <trkpt lat="44.56425" lon="2.27503">
        <ele>324</ele>
        <time>2014-05-25T17:00:20Z</time>
      </trkpt>
      <trkpt lat="44.56432" lon="2.27486">
        <ele>326</ele>
        <time>2014-05-25T17:00:36Z</time>
      </trkpt>
      <trkpt lat="44.56441" lon="2.27472">
        <ele>328</ele>
        <time>2014-05-25T17:00:40Z</time>
      </trkpt>
      <trkpt lat="44.56459" lon="2.27451">
        <ele>334</ele>
        <time>2014-05-25T17:00:42Z</time>
      </trkpt>
      <trkpt lat="44.56465" lon="2.27431">
        <ele>335</ele>
        <time>2014-05-25T17:00:49Z</time>
      </trkpt>
      <trkpt lat="44.56472" lon="2.27413">
        <ele>336</ele>
        <time>2014-05-25T17:00:50Z</time>
      </trkpt>
      <trkpt lat="44.56478" lon="2.27397">
        <ele>337</ele>
        <time>2014-05-25T17:00:52Z</time>
      </trkpt>
      <trkpt lat="44.56481" lon="2.27382">
        <ele>338</ele>
        <time>2014-05-25T17:00:56Z</time>
      </trkpt>
      <trkpt lat="44.56482" lon="2.27377">
        <ele>338</ele>
        <time>2014-05-25T17:01:09Z</time>
      </trkpt>
      <trkpt lat="44.56486" lon="2.27372">
        <ele>339</ele>
        <time>2014-05-25T17:01:13Z</time>
      </trkpt>
      <trkpt lat="44.56489" lon="2.27361">
        <ele>339</ele>
        <time>2014-05-25T17:01:16Z</time>
      </trkpt>
      <trkpt lat="44.56492" lon="2.27352">
        <ele>339</ele>
        <time>2014-05-25T17:01:20Z</time>
      </trkpt>
      <trkpt lat="44.56494" lon="2.27343">
        <ele>340</ele>
        <time>2014-05-25T17:01:52Z</time>
      </trkpt>
      <trkpt lat="44.56496" lon="2.27335">
        <ele>340</ele>
        <time>2014-05-25T17:02:28Z</time>
      </trkpt>
      <trkpt lat="44.565" lon="2.27317">
        <ele>341</ele>
        <time>2014-05-25T17:02:29Z</time>
      </trkpt>
      <trkpt lat="44.56503" lon="2.27295">
        <ele>342</ele>
      </trkpt>
      <trkpt lat="44.56506" lon="2.27268">
        <ele>342</ele>
        <time>2014-05-25T17:02:59Z</time>
      </trkpt>
      <trkpt lat="44.56506" lon="2.27237">
        <ele>342</ele>
      </trkpt>
      <trkpt lat="44.56503" lon="2.27215">
        <ele>341</ele>
      </trkpt>
      <trkpt lat="44.565" lon="2.27191">
        <ele>341</ele>
      </trkpt>
      <trkpt lat="44.56495" lon="2.2717">
        <ele>341</ele>
      </trkpt>
      <trkpt lat="44.5649" lon="2.27148">
        <ele>341</ele>
      </trkpt>
      <trkpt lat="44.56483" lon="2.27126">
        <ele>340</ele>
      </trkpt>
      <trkpt lat="44.56476" lon="2.27101">
        <ele>341</ele>
      </trkpt>
      <trkpt lat="44.56468" lon="2.27073">
        <ele>342</ele>
      </trkpt>
      <trkpt lat="44.56458" lon="2.27044">
        <ele>343</ele>
      </trkpt>
      <trkpt lat="44.56451" lon="2.27017">
        <ele>343</ele>
      </trkpt>
      <trkpt lat="44.56445" lon="2.26994">
        <ele>344</ele>
      </trkpt>
      <trkpt lat="44.5644" lon="2.26975">
        <ele>346</ele>
      </trkpt>
      <trkpt lat="44.56429" lon="2.2695">
        <ele>348</ele>
      </trkpt>
      <trkpt lat="44.5642" lon="2.26927">
        <ele>350</ele>
      </trkpt>
      <trkpt lat="44.56412" lon="2.26903">
        <ele>353</ele>
      </trkpt>
      <trkpt lat="44.56404" lon="2.26878">
        <ele>356</ele>
      </trkpt>
      <trkpt lat="44.56395" lon="2.26847">
        <ele>357</ele>
      </trkpt>
      <trkpt lat="44.56386" lon="2.2682">
        <ele>359</ele>
      </trkpt>
      <trkpt lat="44.56378" lon="2.26788">
        <ele>360</ele>
      </trkpt>
      <trkpt lat="44.56369" lon="2.26756">
        <ele>359</ele>
        <time>2014-05-25T17:03:29Z</time>
      </trkpt>
      <trkpt lat="44.56361" lon="2.26736">
        <ele>359</ele>
      </trkpt>
      <trkpt lat="44.56358" lon="2.26722">
        <ele>358</ele>
      </trkpt>
      <trkpt lat="44.56352" lon="2.26706">
        <ele>358</ele>
      </trkpt>
      <trkpt lat="44.56347" lon="2.2669">
        <ele>357</ele>
      </trkpt>
      <trkpt lat="44.56343" lon="2.26675">
        <ele>357</ele>
      </trkpt>
      <trkpt lat="44.56335" lon="2.26654">
        <ele>357</ele>
      </trkpt>
      <trkpt lat="44.5633" lon="2.26635">
        <ele>356</ele>
      </trkpt>
      <trkpt lat="44.56323" lon="2.26608">
        <ele>356</ele>
      </trkpt>
      <trkpt lat="44.56314" lon="2.26585">
        <ele>356</ele>
      </trkpt>
      <trkpt lat="44.5631" lon="2.26559">
        <ele>355</ele>
      </trkpt>
      <trkpt lat="44.5631" lon="2.26532">
        <ele>354</ele>
      </trkpt>
      <trkpt lat="44.56311" lon="2.26505">
        <ele>352</ele>
      </trkpt>
      <trkpt lat="44.56311" lon="2.2648">
        <ele>351</ele>
      </trkpt>
      <trkpt lat="44.56312" lon="2.26453">
        <ele>349</ele>
        <time>2014-05-25T17:03:52Z</time>
      </trkpt>
      <trkpt lat="44.56322" lon="2.26432">
        <ele>348</ele>
      </trkpt>
      <trkpt lat="44.56328" lon="2.26406">
        <ele>346</ele>
        <time>2014-05-25T17:04:00Z</time>
      </trkpt>
      <trkpt lat="44.56327" lon="2.26381">
        <ele>345</ele>
      </trkpt>
      <trkpt lat="44.56328" lon="2.26357">
        <ele>342</ele>
      </trkpt>
      <trkpt lat="44.56333" lon="2.26334">
        <ele>339</ele>
      </trkpt>
      <trkpt lat="44.5634" lon="2.26309">
        <ele>337</ele>
      </trkpt>
      <trkpt lat="44.56349" lon="2.2628">
        <ele>334</ele>
      </trkpt>
      <trkpt lat="44.56361" lon="2.26252">
        <ele>331</ele>
        <time>2014-05-25T17:04:30Z</time>
      </trkpt>
      <trkpt lat="44.56372" lon="2.26219">
        <ele>327</ele>
      </trkpt>
      <trkpt lat="44.56386" lon="2.26183">
        <ele>323</ele>
      </trkpt>
      <trkpt lat="44.56399" lon="2.26138">
        <ele>319</ele>
      </trkpt>
      <trkpt lat="44.56407" lon="2.26115">
        <ele>316</ele>
      </trkpt>
      <trkpt lat="44.56417" lon="2.26092">
        <ele>314</ele>
        <time>2014-05-25T17:05:00Z</time>
      </trkpt>
      <trkpt lat="44.56423" lon="2.2607">
        <ele>311</ele>
      </trkpt>
      <trkpt lat="44.5643" lon="2.26046">
        <ele>308</ele>
      </trkpt>
      <trkpt lat="44.56435" lon="2.26026">
        <ele>307</ele>
      </trkpt>
      <trkpt lat="44.5644" lon="2.26003">
        <ele>305</ele>
      </trkpt>
      <trkpt lat="44.56449" lon="2.25959">
        <ele>302</ele>
      </trkpt>
      <trkpt lat="44.5646" lon="2.25915">
        <ele>301</ele>
        <time>2014-05-25T17:05:30Z</time>
      </trkpt>
      <trkpt lat="44.56465" lon="2.25887">
        <ele>300</ele>
      </trkpt>
      <trkpt lat="44.56464" lon="2.25847">
        <ele>298</ele>
      </trkpt>
      <trkpt lat="44.56461" lon="2.2582">
        <ele>296</ele>
      </trkpt>
      <trkpt lat="44.56467" lon="2.25785">
        <ele>294</ele>
      </trkpt>
      <trkpt lat="44.56471" lon="2.25772">
        <ele>293</ele>
      </trkpt>
      <trkpt lat="44.56471" lon="2.25765">
        <ele>292</ele>
      </trkpt>
      <trkpt lat="44.56471" lon="2.25756">
        <ele>290</ele>
      </trkpt>
      <trkpt lat="44.5647" lon="2.25731">
        <ele>287</ele>
        <time>2014-05-25T17:06:00Z</time>
      </trkpt>
      <trkpt lat="44.56467" lon="2.25699">
        <ele>282</ele>
      </trkpt>
      <trkpt lat="44.56465" lon="2.25675">
        <ele>278</ele>
      </trkpt>
      <trkpt lat="44.56463" lon="2.25652">
        <ele>273</ele>
        <time>2014-05-25T17:06:13Z</time>
      </trkpt>
      <trkpt lat="44.56486" lon="2.25635">
        <ele>272</ele>
      </trkpt>
      <trkpt lat="44.56502" lon="2.25615">
        <ele>270</ele>
        <time>2014-05-25T17:06:24Z</time>
      </trkpt>
      <trkpt lat="44.56505" lon="2.25576">
        <ele>266</ele>
      </trkpt>
      <trkpt lat="44.56506" lon="2.25537">
        <ele>263</ele>
        <time>2014-05-25T17:06:37Z</time>
      </trkpt>
      <trkpt lat="44.56496" lon="2.25517">
        <ele>260</ele>
      </trkpt>
      <trkpt lat="44.56482" lon="2.25496">
        <ele>258</ele>
        <time>2014-05-25T17:06:48Z</time>
      </trkpt>
      <trkpt lat="44.56476" lon="2.25484">
        <ele>257</ele>
        <time>2014-05-25T17:06:49Z</time>
      </trkpt>
      <trkpt lat="44.56485" lon="2.25486">
        <ele>258</ele>
      </trkpt>
      <trkpt lat="44.56494" lon="2.25488">
        <ele>258</ele>
        <time>2014-05-25T17:06:52Z</time>
      </trkpt>
      <trkpt lat="44.56547" lon="2.25533">
        <ele>264</ele>
      </trkpt>
      <trkpt lat="44.56573" lon="2.25558">
        <ele>263</ele>
      </trkpt>
      <trkpt lat="44.56598" lon="2.25583">
        <ele>263</ele>
        <time>2014-05-25T17:07:12Z</time>
      </trkpt>
      <trkpt lat="44.56626" lon="2.2564">
        <ele>265</ele>
      </trkpt>
      <trkpt lat="44.5664" lon="2.25664">
        <ele>265</ele>
      </trkpt>
      <trkpt lat="44.56663" lon="2.2569">
        <ele>262</ele>
      </trkpt>
      <trkpt lat="44.56687" lon="2.25732">
        <ele>261</ele>
      </trkpt>
      <trkpt lat="44.56714" lon="2.25772">
        <ele>258</ele>
        <time>2014-05-25T17:07:42Z</time>
      </trkpt>
      <trkpt lat="44.56732" lon="2.25796">
        <ele>256</ele>
        <time>2014-05-25T17:07:49Z</time>
      </trkpt>
      <trkpt lat="44.56739" lon="2.25808">
        <ele>255</ele>
        <time>2014-05-25T17:07:52Z</time>
      </trkpt>
      <trkpt lat="44.56741" lon="2.2581">
        <ele>254</ele>
      </trkpt>
      <trkpt lat="44.56746" lon="2.25818">
        <ele>253</ele>
        <time>2014-05-25T17:07:58Z</time>
      </trkpt>
      <trkpt lat="44.56753" lon="2.25829">
        <ele>252</ele>
        <time>2014-05-25T17:08:12Z</time>
      </trkpt>
      <trkpt lat="44.56759" lon="2.25839">
        <ele>251</ele>
      </trkpt>
      <trkpt lat="44.56754" lon="2.25877">
        <ele>254</ele>
        <time>2014-05-25T17:08:58Z</time>
      </trkpt>
    </trkseg>
  </trk>
</gpx>